BAW5EA EGLL-KSEA
Flight info
| Callsign | BAW5EA |
|---|---|
| Flight time | N/A |
| Altitude | 36000 |
| Route | ULTIB1J ULTIB T420 TNT UL28 RODOL UM65 TENSO L603 BELOX DCT REMSI DCT GOMUP/M085F380 DCT 62N020W 66N030W 68N040W 69N050W 69N060W DCT BOPUT/N0488F380 DCT 6830N07000W/N0493F400 6730N08000W 6530N09000W 6230N10000W 58N110W 55N115W DCT YZU DCT LONRO DCT YDC DCT JAKSN GLASR3 |
| Aircraft | B78X/H-SADE1E2E3FGHIJ3J4J5J6LM1M2OP2RWXYZ/LB1D1G1 |
Departure
| Time | 2026-05-04 00:08 |
|---|---|
| Airport | London Heathrow Airport (EGLL) |
Arrival
| Time | N/A |
|---|---|
| Airport | Seattle–Tacoma International Airport (KSEA) |
| Time | Latitude | Longitude | Altitude | Speed | Heading |
|---|---|---|---|---|---|
| 2026-05-04 00:02 | 51.47580 | -0.47314 | 95 ft | 17 kts | 90° |
| 2026-05-04 00:02 | 51.47581 | -0.47120 | 96 ft | 17 kts | 88° |
| 2026-05-04 00:03 | 51.47583 | -0.46924 | 95 ft | 18 kts | 90° |
| 2026-05-04 00:03 | 51.47592 | -0.46733 | 94 ft | 17 kts | 90° |
| 2026-05-04 00:03 | 51.47592 | -0.46542 | 92 ft | 18 kts | 90° |
| 2026-05-04 00:03 | 51.47593 | -0.46344 | 95 ft | 18 kts | 90° |
| 2026-05-04 00:04 | 51.47594 | -0.46142 | 95 ft | 18 kts | 90° |
| 2026-05-04 00:04 | 51.47594 | -0.45936 | 95 ft | 19 kts | 90° |
| 2026-05-04 00:04 | 51.47595 | -0.45727 | 95 ft | 19 kts | 90° |
| 2026-05-04 00:04 | 51.47596 | -0.45515 | 95 ft | 19 kts | 90° |
| 2026-05-04 00:05 | 51.47596 | -0.45302 | 95 ft | 19 kts | 90° |
| 2026-05-04 00:05 | 51.47597 | -0.45087 | 92 ft | 19 kts | 90° |
| 2026-05-04 00:05 | 51.47598 | -0.44871 | 92 ft | 19 kts | 90° |
| 2026-05-04 00:05 | 51.47599 | -0.44653 | 92 ft | 20 kts | 90° |
| 2026-05-04 00:06 | 51.47599 | -0.44433 | 92 ft | 20 kts | 90° |
| 2026-05-04 00:06 | 51.47592 | -0.44213 | 92 ft | 20 kts | 90° |
| 2026-05-04 00:06 | 51.47592 | -0.43990 | 94 ft | 20 kts | 90° |
| 2026-05-04 00:06 | 51.47593 | -0.43767 | 95 ft | 20 kts | 90° |
| 2026-05-04 00:07 | 51.47611 | -0.43551 | 95 ft | 20 kts | 61° |
| 2026-05-04 00:07 | 51.47709 | -0.43426 | 96 ft | 17 kts | 6° |
| 2026-05-04 00:07 | 51.47765 | -0.43528 | 95 ft | 16 kts | 277° |
| 2026-05-04 00:07 | 51.47768 | -0.43951 | 94 ft | 67 kts | 270° |
| 2026-05-04 00:08 | 51.47763 | -0.45088 | 95 ft | 136 kts | 269° |
| 2026-05-04 00:08 | 51.47763 | -0.46876 | 302 ft | 173 kts | 272° |
| 2026-05-04 00:08 | 51.47717 | -0.48942 | 731 ft | 199 kts | 265° |
| 2026-05-04 00:08 | 51.47653 | -0.51262 | 1510 ft | 211 kts | 268° |
| 2026-05-04 00:09 | 51.47646 | -0.53683 | 2431 ft | 227 kts | 273° |
| 2026-05-04 00:09 | 51.48203 | -0.56112 | 3173 ft | 250 kts | 300° |
| 2026-05-04 00:09 | 51.49036 | -0.58591 | 4159 ft | 259 kts | 295° |
| 2026-05-04 00:09 | 51.49835 | -0.61224 | 5304 ft | 265 kts | 294° |
| 2026-05-04 00:10 | 51.50681 | -0.63924 | 5915 ft | 272 kts | 295° |
| 2026-05-04 00:10 | 51.51716 | -0.66473 | 5923 ft | 275 kts | 316° |
| 2026-05-04 00:10 | 51.53387 | -0.67853 | 5965 ft | 279 kts | 348° |
| 2026-05-04 00:10 | 51.55320 | -0.68177 | 5941 ft | 280 kts | 355° |
| 2026-05-04 00:11 | 51.57262 | -0.68341 | 5949 ft | 280 kts | 356° |
| 2026-05-04 00:11 | 51.59172 | -0.68517 | 5951 ft | 278 kts | 355° |
| 2026-05-04 00:11 | 51.61112 | -0.68740 | 5947 ft | 278 kts | 355° |
| 2026-05-04 00:11 | 51.63041 | -0.68965 | 5951 ft | 278 kts | 355° |
| 2026-05-04 00:12 | 51.64975 | -0.69180 | 5945 ft | 278 kts | 355° |
| 2026-05-04 00:12 | 51.66908 | -0.69395 | 5947 ft | 278 kts | 354° |
| 2026-05-04 00:12 | 51.68811 | -0.69948 | 5985 ft | 279 kts | 348° |
| 2026-05-04 00:12 | 51.70751 | -0.70425 | 6460 ft | 282 kts | 351° |
| 2026-05-04 00:13 | 51.72662 | -0.70884 | 7557 ft | 282 kts | 349° |
| 2026-05-04 00:13 | 51.74609 | -0.71419 | 8746 ft | 286 kts | 348° |
| 2026-05-04 00:13 | 51.76586 | -0.71977 | 9861 ft | 291 kts | 349° |
| 2026-05-04 00:13 | 51.78623 | -0.72535 | 10649 ft | 305 kts | 349° |
| 2026-05-04 00:14 | 51.80793 | -0.73123 | 11243 ft | 326 kts | 349° |
| 2026-05-04 00:14 | 51.83101 | -0.73752 | 11785 ft | 346 kts | 349° |
| 2026-05-04 00:14 | 51.85550 | -0.74423 | 12304 ft | 367 kts | 349° |
| 2026-05-04 00:14 | 51.88139 | -0.75132 | 12779 ft | 388 kts | 349° |
| 2026-05-04 00:15 | 51.90873 | -0.75881 | 13198 ft | 408 kts | 349° |
| 2026-05-04 00:15 | 51.93744 | -0.76668 | 13544 ft | 428 kts | 349° |
| 2026-05-04 00:15 | 51.96666 | -0.77470 | 14261 ft | 435 kts | 349° |
| 2026-05-04 00:15 | 51.99660 | -0.78292 | 15077 ft | 438 kts | 348° |
| 2026-05-04 00:16 | 52.02680 | -0.79123 | 15884 ft | 442 kts | 348° |
| 2026-05-04 00:16 | 52.05726 | -0.79966 | 16645 ft | 446 kts | 348° |
| 2026-05-04 00:16 | 52.08805 | -0.80817 | 17384 ft | 451 kts | 348° |
| 2026-05-04 00:16 | 52.11916 | -0.81676 | 18098 ft | 456 kts | 348° |
| 2026-05-04 00:17 | 52.13998 | -0.82253 | 18517 ft | 459 kts | 348° |
| 2026-05-04 00:17 | 52.17164 | -0.83131 | 19137 ft | 464 kts | 348° |
| 2026-05-04 00:17 | 52.20366 | -0.84020 | 19749 ft | 468 kts | 348° |
| 2026-05-04 00:17 | 52.23562 | -0.85061 | 20320 ft | 470 kts | 342° |
| 2026-05-04 00:18 | 52.26583 | -0.87089 | 20923 ft | 470 kts | 329° |
| 2026-05-04 00:18 | 52.29395 | -0.89835 | 21487 ft | 472 kts | 327° |
| 2026-05-04 00:18 | 52.32206 | -0.92656 | 22054 ft | 475 kts | 326° |
| 2026-05-04 00:18 | 52.35036 | -0.95497 | 22598 ft | 478 kts | 326° |
| 2026-05-04 00:19 | 52.37857 | -0.98301 | 23124 ft | 482 kts | 327° |
| 2026-05-04 00:19 | 52.40737 | -1.01168 | 23620 ft | 485 kts | 327° |
| 2026-05-04 00:19 | 52.43632 | -1.04067 | 24014 ft | 489 kts | 327° |
| 2026-05-04 00:19 | 52.46541 | -1.06990 | 24413 ft | 492 kts | 327° |
| 2026-05-04 00:20 | 52.49466 | -1.09927 | 24810 ft | 495 kts | 327° |
| 2026-05-04 00:20 | 52.52413 | -1.12887 | 25198 ft | 497 kts | 327° |
| 2026-05-04 00:20 | 52.55370 | -1.15865 | 25594 ft | 500 kts | 327° |
| 2026-05-04 00:20 | 52.58345 | -1.18867 | 25964 ft | 502 kts | 327° |
| 2026-05-04 00:21 | 52.61334 | -1.21885 | 26342 ft | 505 kts | 327° |
| 2026-05-04 00:21 | 52.64292 | -1.24875 | 26866 ft | 503 kts | 327° |
| 2026-05-04 00:21 | 52.67272 | -1.27893 | 27415 ft | 502 kts | 327° |
| 2026-05-04 00:21 | 52.70244 | -1.30911 | 27960 ft | 501 kts | 327° |
| 2026-05-04 00:22 | 52.73207 | -1.33924 | 28508 ft | 500 kts | 326° |
| 2026-05-04 00:22 | 52.76165 | -1.36940 | 29163 ft | 498 kts | 327° |
| 2026-05-04 00:22 | 52.79091 | -1.39927 | 30062 ft | 490 kts | 326° |
| 2026-05-04 00:22 | 52.81969 | -1.42867 | 30862 ft | 481 kts | 326° |
| 2026-05-04 00:23 | 52.84795 | -1.45761 | 31667 ft | 473 kts | 326° |
| 2026-05-04 00:23 | 52.87533 | -1.48570 | 32463 ft | 465 kts | 326° |
| 2026-05-04 00:23 | 52.90270 | -1.51382 | 33162 ft | 460 kts | 326° |
| 2026-05-04 00:23 | 52.92985 | -1.54171 | 33806 ft | 457 kts | 327° |
| 2026-05-04 00:24 | 52.95682 | -1.56951 | 34322 ft | 455 kts | 327° |
| 2026-05-04 00:24 | 52.98364 | -1.59722 | 34770 ft | 454 kts | 327° |
| 2026-05-04 00:24 | 53.01048 | -1.62495 | 35209 ft | 453 kts | 327° |
| 2026-05-04 00:24 | 53.03727 | -1.65265 | 35649 ft | 452 kts | 327° |
| 2026-05-04 00:25 | 53.06401 | -1.68037 | 35955 ft | 455 kts | 327° |
| 2026-05-04 00:25 | 53.09098 | -1.70840 | 35971 ft | 457 kts | 327° |
| 2026-05-04 00:25 | 53.14409 | -1.76368 | 35979 ft | 453 kts | 327° |
| 2026-05-04 00:26 | 53.19762 | -1.81958 | 36200 ft | 455 kts | 326° |
| 2026-05-04 00:26 | 53.22442 | -1.84762 | 36638 ft | 454 kts | 326° |
| 2026-05-04 00:26 | 53.25159 | -1.87448 | 37079 ft | 453 kts | 330° |
| 2026-05-04 00:27 | 53.27918 | -1.90031 | 37447 ft | 453 kts | 328° |
| 2026-05-04 00:27 | 53.30650 | -1.92672 | 37816 ft | 454 kts | 328° |
| 2026-05-04 00:27 | 53.33364 | -1.95266 | 37990 ft | 459 kts | 329° |
| 2026-05-04 00:27 | 53.36175 | -1.97909 | 37993 ft | 467 kts | 329° |
| 2026-05-04 00:28 | 53.41937 | -2.03390 | 38005 ft | 483 kts | 329° |
| 2026-05-04 00:28 | 53.47698 | -2.08893 | 38001 ft | 464 kts | 329° |
| 2026-05-04 00:29 | 53.50469 | -2.11539 | 37994 ft | 453 kts | 329° |
| 2026-05-04 00:29 | 53.53141 | -2.14102 | 37989 ft | 441 kts | 329° |
| 2026-05-04 00:29 | 53.55773 | -2.16632 | 37982 ft | 430 kts | 328° |
| 2026-05-04 00:29 | 53.58198 | -2.19459 | 38017 ft | 422 kts | 315° |
| 2026-05-04 00:30 | 53.60173 | -2.23136 | 38035 ft | 426 kts | 302° |
| 2026-05-04 00:30 | 53.61599 | -2.27515 | 38042 ft | 425 kts | 290° |
| 2026-05-04 00:30 | 53.63761 | -2.36793 | 38013 ft | 424 kts | 289° |
| 2026-05-04 00:31 | 53.65864 | -2.46090 | 38008 ft | 424 kts | 290° |
| 2026-05-04 00:31 | 53.67980 | -2.55316 | 38008 ft | 423 kts | 289° |
| 2026-05-04 00:32 | 53.70079 | -2.64613 | 38002 ft | 424 kts | 290° |
| 2026-05-04 00:32 | 53.72188 | -2.73934 | 38006 ft | 421 kts | 290° |
| 2026-05-04 00:33 | 53.75302 | -2.87808 | 38009 ft | 424 kts | 290° |
| 2026-05-04 00:34 | 53.77372 | -2.97082 | 38006 ft | 420 kts | 290° |
| 2026-05-04 00:34 | 53.79439 | -3.06377 | 38006 ft | 420 kts | 290° |
| 2026-05-04 00:35 | 53.81495 | -3.15669 | 38016 ft | 424 kts | 290° |
| 2026-05-04 00:35 | 53.83549 | -3.24995 | 38017 ft | 423 kts | 290° |
| 2026-05-04 00:36 | 53.85579 | -3.34252 | 38013 ft | 424 kts | 290° |
| 2026-05-04 00:36 | 53.87631 | -3.43648 | 38019 ft | 425 kts | 290° |
| 2026-05-04 00:37 | 53.89661 | -3.52992 | 38015 ft | 422 kts | 290° |
| 2026-05-04 00:37 | 53.91692 | -3.62379 | 38020 ft | 421 kts | 290° |
| 2026-05-04 00:38 | 53.93691 | -3.71666 | 38016 ft | 425 kts | 290° |
| 2026-05-04 00:38 | 53.95803 | -3.81013 | 38022 ft | 419 kts | 301° |
| 2026-05-04 00:38 | 53.97449 | -3.85089 | 38023 ft | 420 kts | 314° |
| 2026-05-04 00:39 | 53.99461 | -3.88709 | 38014 ft | 422 kts | 313° |
| 2026-05-04 00:39 | 54.03502 | -3.95984 | 38029 ft | 422 kts | 313° |
| 2026-05-04 00:40 | 54.07495 | -4.03185 | 38025 ft | 420 kts | 313° |
| 2026-05-04 00:40 | 54.11521 | -4.10470 | 38027 ft | 423 kts | 313° |
| 2026-05-04 00:41 | 54.15543 | -4.17769 | 38026 ft | 421 kts | 313° |
| 2026-05-04 00:41 | 54.19538 | -4.25045 | 38025 ft | 419 kts | 314° |
| 2026-05-04 00:42 | 54.23533 | -4.32337 | 38023 ft | 420 kts | 314° |
| 2026-05-04 00:42 | 54.27526 | -4.39651 | 38027 ft | 421 kts | 314° |
| 2026-05-04 00:43 | 54.31521 | -4.46990 | 38030 ft | 421 kts | 314° |
| 2026-05-04 00:43 | 54.35512 | -4.54347 | 38035 ft | 421 kts | 313° |
| 2026-05-04 00:44 | 54.39495 | -4.61708 | 38034 ft | 421 kts | 313° |
| 2026-05-04 00:44 | 54.43473 | -4.69085 | 38033 ft | 419 kts | 313° |
| 2026-05-04 00:45 | 54.47394 | -4.76376 | 38033 ft | 418 kts | 313° |
| 2026-05-04 00:45 | 54.51337 | -4.83734 | 38029 ft | 418 kts | 314° |
| 2026-05-04 00:46 | 54.55273 | -4.91098 | 38029 ft | 417 kts | 314° |
| 2026-05-04 00:46 | 54.59212 | -4.98490 | 38032 ft | 418 kts | 313° |
| 2026-05-04 00:47 | 54.63154 | -5.05912 | 38036 ft | 419 kts | 313° |
| 2026-05-04 00:47 | 54.67056 | -5.13283 | 38036 ft | 415 kts | 313° |
| 2026-05-04 00:48 | 54.70951 | -5.20660 | 38038 ft | 416 kts | 313° |
| 2026-05-04 00:48 | 54.74848 | -5.28066 | 38040 ft | 416 kts | 313° |
| 2026-05-04 00:49 | 54.78745 | -5.35494 | 38041 ft | 416 kts | 313° |
| 2026-05-04 00:49 | 54.82638 | -5.42937 | 38045 ft | 417 kts | 313° |
| 2026-05-04 00:50 | 54.86504 | -5.50352 | 38037 ft | 417 kts | 313° |
| 2026-05-04 00:50 | 54.90381 | -5.57813 | 38040 ft | 411 kts | 313° |
| 2026-05-04 00:51 | 54.94212 | -5.65203 | 38038 ft | 413 kts | 313° |
| 2026-05-04 00:51 | 54.98057 | -5.72648 | 38042 ft | 413 kts | 313° |
| 2026-05-04 00:52 | 55.01897 | -5.80104 | 38044 ft | 413 kts | 313° |
| 2026-05-04 00:52 | 55.05734 | -5.87577 | 38044 ft | 413 kts | 313° |
| 2026-05-04 00:53 | 55.09532 | -5.94997 | 38048 ft | 412 kts | 313° |
| 2026-05-04 00:53 | 55.13349 | -6.02479 | 38049 ft | 410 kts | 313° |
| 2026-05-04 00:54 | 55.17136 | -6.09925 | 38043 ft | 409 kts | 313° |
| 2026-05-04 00:54 | 55.20928 | -6.17402 | 38053 ft | 411 kts | 313° |
| 2026-05-04 00:55 | 55.24720 | -6.24904 | 38054 ft | 411 kts | 313° |
| 2026-05-04 00:55 | 55.28482 | -6.32369 | 38055 ft | 411 kts | 313° |
| 2026-05-04 00:56 | 55.32256 | -6.39884 | 38056 ft | 410 kts | 313° |
| 2026-05-04 00:56 | 55.36026 | -6.47410 | 38067 ft | 409 kts | 313° |
| 2026-05-04 00:57 | 55.39761 | -6.54893 | 38063 ft | 407 kts | 313° |
| 2026-05-04 00:57 | 55.43498 | -6.62400 | 38066 ft | 408 kts | 313° |
| 2026-05-04 00:58 | 55.47234 | -6.69934 | 38060 ft | 407 kts | 313° |
| 2026-05-04 00:58 | 55.50929 | -6.77401 | 38061 ft | 406 kts | 313° |
| 2026-05-04 00:59 | 55.54635 | -6.84920 | 38059 ft | 405 kts | 313° |
| 2026-05-04 00:59 | 55.58346 | -6.92470 | 38062 ft | 406 kts | 313° |
| 2026-05-04 01:00 | 55.62033 | -6.99996 | 38069 ft | 404 kts | 313° |
| 2026-05-04 01:00 | 55.65706 | -7.07516 | 38074 ft | 404 kts | 312° |
| 2026-05-04 01:01 | 55.69380 | -7.15062 | 38071 ft | 404 kts | 312° |
| 2026-05-04 01:01 | 55.73047 | -7.22617 | 38074 ft | 404 kts | 312° |
| 2026-05-04 01:02 | 55.76692 | -7.30151 | 38074 ft | 404 kts | 312° |
| 2026-05-04 01:02 | 55.80354 | -7.37743 | 38072 ft | 404 kts | 312° |
| 2026-05-04 01:03 | 55.84013 | -7.45352 | 38079 ft | 405 kts | 312° |
| 2026-05-04 01:03 | 55.87651 | -7.52944 | 38080 ft | 405 kts | 312° |
| 2026-05-04 01:04 | 55.91308 | -7.60596 | 38082 ft | 405 kts | 312° |
| 2026-05-04 01:04 | 55.94958 | -7.68261 | 38084 ft | 405 kts | 312° |
| 2026-05-04 01:05 | 55.98555 | -7.75839 | 38091 ft | 406 kts | 312° |
| 2026-05-04 01:05 | 56.02178 | -7.83495 | 38091 ft | 405 kts | 312° |
| 2026-05-04 01:06 | 56.05808 | -7.91190 | 38087 ft | 404 kts | 312° |
| 2026-05-04 01:06 | 56.08833 | -7.97621 | 38083 ft | 401 kts | 312° |
| 2026-05-04 01:07 | 56.12396 | -8.05217 | 38084 ft | 401 kts | 312° |
| 2026-05-04 01:07 | 56.15985 | -8.12894 | 38084 ft | 401 kts | 312° |
| 2026-05-04 01:08 | 56.19568 | -8.20584 | 38083 ft | 402 kts | 312° |
| 2026-05-04 01:08 | 56.23148 | -8.28290 | 38087 ft | 402 kts | 312° |
| 2026-05-04 01:09 | 56.26715 | -8.35994 | 38092 ft | 402 kts | 312° |
| 2026-05-04 01:09 | 56.30292 | -8.43745 | 38087 ft | 399 kts | 311° |
| 2026-05-04 01:10 | 56.33806 | -8.51384 | 38085 ft | 397 kts | 311° |
| 2026-05-04 01:10 | 56.37338 | -8.59083 | 38090 ft | 398 kts | 311° |
| 2026-05-04 01:11 | 56.40839 | -8.66745 | 38076 ft | 397 kts | 311° |
| 2026-05-04 01:11 | 56.44358 | -8.74466 | 38093 ft | 397 kts | 311° |
| 2026-05-04 01:12 | 56.47874 | -8.82206 | 38098 ft | 398 kts | 311° |
| 2026-05-04 01:12 | 56.51382 | -8.89954 | 38101 ft | 398 kts | 311° |
| 2026-05-04 01:13 | 56.54870 | -8.97684 | 38079 ft | 392 kts | 311° |
| 2026-05-04 01:13 | 56.58313 | -9.05337 | 38095 ft | 395 kts | 311° |
| 2026-05-04 01:14 | 56.61781 | -9.13073 | 38100 ft | 395 kts | 311° |
| 2026-05-04 01:14 | 56.65242 | -9.20815 | 38100 ft | 394 kts | 311° |
| 2026-05-04 01:15 | 56.68697 | -9.28570 | 38098 ft | 394 kts | 311° |
| 2026-05-04 01:15 | 56.72143 | -9.36330 | 38082 ft | 394 kts | 311° |
| 2026-05-04 01:16 | 56.75595 | -9.44127 | 38091 ft | 396 kts | 310° |
| 2026-05-04 01:16 | 56.79003 | -9.51853 | 38087 ft | 391 kts | 310° |
| 2026-05-04 01:17 | 56.82420 | -9.59620 | 38085 ft | 393 kts | 310° |
| 2026-05-04 01:17 | 56.85842 | -9.67426 | 38091 ft | 393 kts | 310° |
| 2026-05-04 01:18 | 56.89256 | -9.75238 | 38096 ft | 393 kts | 310° |
| 2026-05-04 01:18 | 56.92669 | -9.83077 | 38096 ft | 394 kts | 310° |
| 2026-05-04 01:19 | 56.96059 | -9.90884 | 38095 ft | 394 kts | 310° |
| 2026-05-04 01:19 | 56.99473 | -9.98755 | 38085 ft | 392 kts | 312° |
| 2026-05-04 01:20 | 57.03423 | -10.05516 | 38093 ft | 389 kts | 319° |
| 2026-05-04 01:20 | 57.07509 | -10.12093 | 38081 ft | 391 kts | 319° |
| 2026-05-04 01:21 | 57.11592 | -10.18709 | 38088 ft | 391 kts | 319° |
| 2026-05-04 01:21 | 57.15654 | -10.25300 | 38090 ft | 391 kts | 319° |
| 2026-05-04 01:22 | 57.19740 | -10.31956 | 38090 ft | 391 kts | 319° |
| 2026-05-04 01:22 | 57.23819 | -10.38618 | 38089 ft | 391 kts | 319° |
| 2026-05-04 01:23 | 57.27869 | -10.45255 | 38085 ft | 388 kts | 319° |
| 2026-05-04 01:23 | 57.31882 | -10.51850 | 38080 ft | 388 kts | 319° |
| 2026-05-04 01:24 | 57.35924 | -10.58514 | 38082 ft | 389 kts | 319° |
| 2026-05-04 01:24 | 57.39960 | -10.65188 | 38079 ft | 389 kts | 319° |
| 2026-05-04 01:25 | 57.44004 | -10.71896 | 38078 ft | 389 kts | 318° |
| 2026-05-04 01:25 | 57.48039 | -10.78609 | 38063 ft | 388 kts | 318° |
| 2026-05-04 01:26 | 57.52037 | -10.85285 | 38063 ft | 386 kts | 318° |
| 2026-05-04 01:26 | 57.56027 | -10.91963 | 38081 ft | 391 kts | 318° |
| 2026-05-04 01:27 | 57.60062 | -10.98739 | 38074 ft | 388 kts | 318° |
| 2026-05-04 01:27 | 57.64076 | -11.05502 | 38073 ft | 388 kts | 317° |
| 2026-05-04 01:28 | 57.68061 | -11.12235 | 38067 ft | 388 kts | 317° |
| 2026-05-04 01:28 | 57.72064 | -11.19019 | 38060 ft | 388 kts | 317° |
| 2026-05-04 01:29 | 57.76049 | -11.25798 | 38058 ft | 386 kts | 317° |
| 2026-05-04 01:29 | 57.80038 | -11.32601 | 38056 ft | 387 kts | 317° |
| 2026-05-04 01:30 | 57.84030 | -11.39431 | 38059 ft | 388 kts | 317° |
| 2026-05-04 01:30 | 57.88015 | -11.46271 | 38061 ft | 388 kts | 317° |
| 2026-05-04 01:31 | 57.91974 | -11.53088 | 38068 ft | 388 kts | 317° |
| 2026-05-04 01:31 | 57.95955 | -11.59962 | 38058 ft | 388 kts | 316° |
| 2026-05-04 01:32 | 57.99895 | -11.66791 | 38046 ft | 384 kts | 316° |
| 2026-05-04 01:32 | 58.03848 | -11.73660 | 38051 ft | 388 kts | 316° |
| 2026-05-04 01:33 | 58.07818 | -11.80584 | 38040 ft | 386 kts | 316° |
| 2026-05-04 01:33 | 58.11739 | -11.87441 | 38036 ft | 386 kts | 316° |
| 2026-05-04 01:34 | 58.15684 | -11.94364 | 38036 ft | 386 kts | 316° |
| 2026-05-04 01:34 | 58.19626 | -12.01302 | 38036 ft | 387 kts | 316° |
| 2026-05-04 01:35 | 58.23567 | -12.08261 | 38038 ft | 387 kts | 316° |
| 2026-05-04 01:35 | 58.27485 | -12.15201 | 38035 ft | 387 kts | 316° |
| 2026-05-04 01:36 | 58.31431 | -12.22212 | 38041 ft | 388 kts | 316° |
| 2026-05-04 01:36 | 58.35372 | -12.29238 | 38050 ft | 388 kts | 316° |
| 2026-05-04 01:37 | 58.39317 | -12.36294 | 38040 ft | 387 kts | 316° |
| 2026-05-04 01:37 | 58.43240 | -12.43332 | 38057 ft | 386 kts | 316° |
| 2026-05-04 01:38 | 58.47111 | -12.50301 | 38034 ft | 384 kts | 315° |
| 2026-05-04 01:38 | 58.51001 | -12.57326 | 38034 ft | 385 kts | 315° |
| 2026-05-04 01:39 | 58.54896 | -12.64382 | 38023 ft | 386 kts | 315° |
| 2026-05-04 01:39 | 58.58802 | -12.71479 | 38027 ft | 387 kts | 315° |
| 2026-05-04 01:40 | 58.62701 | -12.78589 | 38025 ft | 386 kts | 315° |
| 2026-05-04 01:40 | 58.66584 | -12.85692 | 38024 ft | 385 kts | 315° |
| 2026-05-04 01:41 | 58.70432 | -12.92751 | 38026 ft | 384 kts | 315° |
| 2026-05-04 01:41 | 58.74291 | -12.99858 | 38022 ft | 383 kts | 315° |
| 2026-05-04 01:42 | 58.78144 | -13.06974 | 38021 ft | 383 kts | 315° |
| 2026-05-04 01:42 | 58.81997 | -13.14114 | 38016 ft | 384 kts | 315° |
| 2026-05-04 01:43 | 58.85822 | -13.21223 | 38016 ft | 384 kts | 314° |
| 2026-05-04 01:43 | 58.89668 | -13.28396 | 38016 ft | 384 kts | 314° |
| 2026-05-04 01:44 | 58.93506 | -13.35578 | 38014 ft | 383 kts | 314° |
| 2026-05-04 01:44 | 58.97315 | -13.42729 | 38012 ft | 382 kts | 314° |
| 2026-05-04 01:45 | 59.01131 | -13.49914 | 38033 ft | 382 kts | 314° |
| 2026-05-04 01:45 | 59.06856 | -13.60740 | 38096 ft | 384 kts | 314° |
| 2026-05-04 01:46 | 59.10659 | -13.67961 | 38151 ft | 385 kts | 314° |
| 2026-05-04 01:46 | 59.14480 | -13.75240 | 38179 ft | 383 kts | 314° |
| 2026-05-04 01:47 | 59.18285 | -13.82511 | 38242 ft | 380 kts | 314° |
| 2026-05-04 01:47 | 59.22057 | -13.89745 | 38283 ft | 380 kts | 314° |
| 2026-05-04 01:48 | 59.25835 | -13.97014 | 38324 ft | 381 kts | 314° |
| 2026-05-04 01:48 | 59.29590 | -14.04262 | 38371 ft | 382 kts | 313° |
| 2026-05-04 01:49 | 59.33373 | -14.11587 | 38413 ft | 382 kts | 313° |
| 2026-05-04 01:49 | 59.37142 | -14.18910 | 38466 ft | 381 kts | 313° |
| 2026-05-04 01:50 | 59.40908 | -14.26253 | 38508 ft | 381 kts | 313° |
| 2026-05-04 01:50 | 59.44657 | -14.33586 | 38541 ft | 380 kts | 313° |
| 2026-05-04 01:51 | 59.48372 | -14.40875 | 38578 ft | 379 kts | 313° |
| 2026-05-04 01:51 | 59.52129 | -14.48274 | 38607 ft | 382 kts | 313° |
| 2026-05-04 01:52 | 59.55881 | -14.55684 | 38638 ft | 381 kts | 313° |
| 2026-05-04 01:52 | 59.59622 | -14.63099 | 38666 ft | 381 kts | 313° |
| 2026-05-04 01:53 | 59.63364 | -14.70541 | 38700 ft | 381 kts | 313° |
| 2026-05-04 01:53 | 59.67073 | -14.77943 | 38755 ft | 380 kts | 313° |
| 2026-05-04 01:54 | 59.70790 | -14.85383 | 38785 ft | 379 kts | 313° |
| 2026-05-04 01:54 | 59.73873 | -14.91577 | 38810 ft | 380 kts | 313° |
| 2026-05-04 01:55 | 59.77593 | -14.99071 | 38853 ft | 381 kts | 312° |
| 2026-05-04 01:55 | 59.81321 | -15.06605 | 38878 ft | 382 kts | 312° |
| 2026-05-04 01:56 | 59.85018 | -15.14102 | 38910 ft | 381 kts | 312° |
| 2026-05-04 01:56 | 59.88726 | -15.21648 | 38965 ft | 380 kts | 312° |
| 2026-05-04 01:57 | 59.92422 | -15.29196 | 39003 ft | 379 kts | 312° |
| 2026-05-04 01:57 | 59.96100 | -15.36732 | 39025 ft | 379 kts | 312° |
| 2026-05-04 01:58 | 59.99791 | -15.44319 | 39032 ft | 382 kts | 312° |
| 2026-05-04 01:58 | 60.03464 | -15.51895 | 39073 ft | 381 kts | 312° |
| 2026-05-04 01:59 | 60.07149 | -15.59524 | 39109 ft | 381 kts | 312° |
| 2026-05-04 01:59 | 60.10833 | -15.67175 | 39138 ft | 381 kts | 312° |
| 2026-05-04 02:00 | 60.14509 | -15.74837 | 39193 ft | 380 kts | 311° |
| 2026-05-04 02:00 | 60.18175 | -15.82502 | 39220 ft | 380 kts | 311° |
| 2026-05-04 02:01 | 60.21834 | -15.90181 | 39256 ft | 380 kts | 311° |
| 2026-05-04 02:01 | 60.25468 | -15.97834 | 39285 ft | 381 kts | 311° |
| 2026-05-04 02:02 | 60.29131 | -16.05573 | 39310 ft | 381 kts | 311° |
| 2026-05-04 02:02 | 60.32790 | -16.13331 | 39352 ft | 382 kts | 311° |
| 2026-05-04 02:03 | 60.36449 | -16.21117 | 39414 ft | 381 kts | 311° |
| 2026-05-04 02:03 | 60.40077 | -16.28864 | 39441 ft | 379 kts | 311° |
| 2026-05-04 02:04 | 60.43697 | -16.36620 | 39472 ft | 379 kts | 311° |
| 2026-05-04 02:04 | 60.47298 | -16.44364 | 39504 ft | 382 kts | 311° |
| 2026-05-04 02:05 | 60.50941 | -16.52223 | 39531 ft | 381 kts | 311° |
| 2026-05-04 02:05 | 60.54575 | -16.60091 | 39557 ft | 381 kts | 311° |
| 2026-05-04 02:06 | 60.58200 | -16.67967 | 39596 ft | 381 kts | 311° |
| 2026-05-04 02:06 | 60.61793 | -16.75803 | 39619 ft | 381 kts | 311° |
| 2026-05-04 02:07 | 60.65408 | -16.83713 | 39666 ft | 381 kts | 311° |
| 2026-05-04 02:07 | 60.69021 | -16.91646 | 39690 ft | 381 kts | 311° |
| 2026-05-04 02:08 | 60.72610 | -16.99556 | 39731 ft | 382 kts | 311° |
| 2026-05-04 02:08 | 60.76217 | -17.07531 | 39762 ft | 382 kts | 310° |
| 2026-05-04 02:09 | 60.79820 | -17.15528 | 39799 ft | 382 kts | 310° |
| 2026-05-04 02:09 | 60.83427 | -17.23562 | 39864 ft | 383 kts | 310° |
| 2026-05-04 02:10 | 60.87032 | -17.31620 | 39894 ft | 383 kts | 310° |
| 2026-05-04 02:10 | 60.90634 | -17.39700 | 39925 ft | 383 kts | 310° |
| 2026-05-04 02:11 | 60.94231 | -17.47800 | 39939 ft | 384 kts | 310° |
| 2026-05-04 02:11 | 60.97810 | -17.55887 | 39982 ft | 384 kts | 310° |
| 2026-05-04 02:12 | 61.01404 | -17.64037 | 40004 ft | 383 kts | 310° |
| 2026-05-04 02:12 | 61.04992 | -17.72205 | 40015 ft | 384 kts | 310° |
| 2026-05-04 02:13 | 61.08551 | -17.80334 | 40022 ft | 382 kts | 310° |
| 2026-05-04 02:13 | 61.12112 | -17.88498 | 40016 ft | 381 kts | 310° |
| 2026-05-04 02:14 | 61.15664 | -17.96673 | 40014 ft | 382 kts | 310° |
| 2026-05-04 02:14 | 61.19221 | -18.04887 | 40016 ft | 383 kts | 310° |
| 2026-05-04 02:15 | 61.22778 | -18.13131 | 40028 ft | 383 kts | 310° |
| 2026-05-04 02:15 | 61.26308 | -18.21344 | 40025 ft | 383 kts | 310° |
| 2026-05-04 02:16 | 61.29858 | -18.29631 | 40026 ft | 384 kts | 309° |
| 2026-05-04 02:16 | 61.33401 | -18.37936 | 40018 ft | 383 kts | 309° |
| 2026-05-04 02:17 | 61.36930 | -18.46237 | 40013 ft | 382 kts | 309° |
| 2026-05-04 02:17 | 61.40425 | -18.54487 | 39992 ft | 381 kts | 309° |
| 2026-05-04 02:18 | 61.43948 | -18.62837 | 40032 ft | 384 kts | 309° |
| 2026-05-04 02:18 | 61.47477 | -18.71228 | 40030 ft | 383 kts | 309° |
| 2026-05-04 02:19 | 61.50996 | -18.79630 | 40025 ft | 383 kts | 309° |
| 2026-05-04 02:19 | 61.54502 | -18.88033 | 40019 ft | 383 kts | 309° |
| 2026-05-04 02:20 | 61.58003 | -18.96452 | 40019 ft | 382 kts | 309° |
| 2026-05-04 02:20 | 61.61494 | -19.04881 | 40022 ft | 382 kts | 309° |
| 2026-05-04 02:21 | 61.64989 | -19.13349 | 40025 ft | 383 kts | 309° |
| 2026-05-04 02:21 | 61.68463 | -19.21800 | 40029 ft | 384 kts | 309° |
| 2026-05-04 02:22 | 61.71959 | -19.30336 | 40031 ft | 384 kts | 309° |
| 2026-05-04 02:22 | 61.75441 | -19.38870 | 40032 ft | 383 kts | 309° |
| 2026-05-04 02:23 | 61.78912 | -19.47408 | 40034 ft | 383 kts | 309° |
| 2026-05-04 02:23 | 61.82350 | -19.55898 | 40030 ft | 382 kts | 308° |
| 2026-05-04 02:24 | 61.85803 | -19.64458 | 40027 ft | 383 kts | 308° |
| 2026-05-04 02:24 | 61.89259 | -19.73057 | 40018 ft | 383 kts | 308° |
| 2026-05-04 02:25 | 61.92717 | -19.81693 | 40021 ft | 384 kts | 308° |
| 2026-05-04 02:25 | 61.96176 | -19.90367 | 40024 ft | 385 kts | 308° |
| 2026-05-04 02:26 | 61.99630 | -19.99052 | 40045 ft | 385 kts | 310° |
| 2026-05-04 02:26 | 62.03497 | -20.06969 | 40038 ft | 385 kts | 314° |
| 2026-05-04 02:27 | 62.07389 | -20.14842 | 40041 ft | 386 kts | 314° |
| 2026-05-04 02:27 | 62.11295 | -20.22700 | 40038 ft | 386 kts | 314° |
| 2026-05-04 02:28 | 62.15169 | -20.30559 | 40040 ft | 386 kts | 314° |
| 2026-05-04 02:28 | 62.19062 | -20.38469 | 40040 ft | 385 kts | 314° |
| 2026-05-04 02:29 | 62.22944 | -20.46393 | 40047 ft | 385 kts | 314° |
| 2026-05-04 02:29 | 62.26821 | -20.54335 | 40037 ft | 384 kts | 314° |
| 2026-05-04 02:30 | 62.30681 | -20.62271 | 40037 ft | 383 kts | 314° |
| 2026-05-04 02:30 | 62.34531 | -20.70215 | 40035 ft | 383 kts | 313° |
| 2026-05-04 02:31 | 62.38361 | -20.78150 | 40036 ft | 384 kts | 313° |
| 2026-05-04 02:31 | 62.42219 | -20.86172 | 40039 ft | 385 kts | 313° |
| 2026-05-04 02:32 | 62.46086 | -20.94242 | 40046 ft | 386 kts | 313° |
| 2026-05-04 02:32 | 62.49943 | -21.02322 | 40032 ft | 385 kts | 313° |
| 2026-05-04 02:33 | 62.53780 | -21.10392 | 40037 ft | 384 kts | 313° |
| 2026-05-04 02:33 | 62.57583 | -21.18421 | 40039 ft | 384 kts | 313° |
| 2026-05-04 02:34 | 62.61415 | -21.26540 | 40044 ft | 385 kts | 313° |
| 2026-05-04 02:34 | 62.65255 | -21.34709 | 40048 ft | 386 kts | 313° |
| 2026-05-04 02:35 | 62.69071 | -21.42857 | 40046 ft | 386 kts | 313° |
| 2026-05-04 02:35 | 62.72899 | -21.51061 | 40045 ft | 386 kts | 313° |
| 2026-05-04 02:36 | 62.76713 | -21.59268 | 40057 ft | 384 kts | 313° |
| 2026-05-04 02:36 | 62.80508 | -21.67466 | 40055 ft | 384 kts | 313° |
| 2026-05-04 02:37 | 62.84307 | -21.75702 | 40056 ft | 385 kts | 312° |
| 2026-05-04 02:37 | 62.88112 | -21.83986 | 40061 ft | 386 kts | 312° |
| 2026-05-04 02:38 | 62.91893 | -21.92246 | 40066 ft | 386 kts | 312° |
| 2026-05-04 02:38 | 62.95687 | -22.00568 | 40066 ft | 385 kts | 312° |
| 2026-05-04 02:39 | 62.99475 | -22.08910 | 40061 ft | 384 kts | 312° |
| 2026-05-04 02:39 | 63.03244 | -22.17242 | 40069 ft | 384 kts | 312° |
| 2026-05-04 02:40 | 63.06984 | -22.25543 | 40069 ft | 384 kts | 312° |
| 2026-05-04 02:40 | 63.10750 | -22.33933 | 40072 ft | 385 kts | 312° |
| 2026-05-04 02:41 | 63.14520 | -22.42365 | 40074 ft | 386 kts | 312° |
| 2026-05-04 02:41 | 63.18293 | -22.50837 | 40064 ft | 386 kts | 312° |
| 2026-05-04 02:42 | 63.22064 | -22.59336 | 40074 ft | 385 kts | 312° |
| 2026-05-04 02:42 | 63.25173 | -22.66372 | 40071 ft | 384 kts | 311° |
| 2026-05-04 02:43 | 63.29512 | -22.76229 | 40067 ft | 384 kts | 311° |
| 2026-05-04 02:43 | 63.32620 | -22.83316 | 40078 ft | 385 kts | 311° |
| 2026-05-04 02:44 | 63.36358 | -22.91869 | 40084 ft | 385 kts | 311° |
| 2026-05-04 02:44 | 63.40093 | -23.00452 | 40089 ft | 386 kts | 311° |
| 2026-05-04 02:45 | 63.43823 | -23.09055 | 40109 ft | 385 kts | 311° |
| 2026-05-04 02:45 | 63.47542 | -23.17670 | 40082 ft | 384 kts | 311° |
| 2026-05-04 02:46 | 63.51241 | -23.26271 | 40086 ft | 383 kts | 311° |
| 2026-05-04 02:46 | 63.54915 | -23.34850 | 40082 ft | 384 kts | 311° |
| 2026-05-04 02:47 | 63.58618 | -23.43529 | 40096 ft | 385 kts | 311° |
| 2026-05-04 02:47 | 63.62323 | -23.52249 | 40090 ft | 385 kts | 311° |
| 2026-05-04 02:48 | 63.65995 | -23.60924 | 40090 ft | 384 kts | 311° |
| 2026-05-04 02:48 | 63.69675 | -23.69656 | 40087 ft | 384 kts | 310° |
| 2026-05-04 02:49 | 63.73350 | -23.78410 | 40083 ft | 383 kts | 310° |
| 2026-05-04 02:49 | 63.77015 | -23.87176 | 40083 ft | 384 kts | 310° |
| 2026-05-04 02:50 | 63.80685 | -23.95989 | 40085 ft | 385 kts | 310° |
| 2026-05-04 02:50 | 63.84359 | -24.04849 | 40082 ft | 386 kts | 310° |
| 2026-05-04 02:51 | 63.88043 | -24.13766 | 40085 ft | 388 kts | 310° |
| 2026-05-04 02:51 | 63.91696 | -24.22646 | 40090 ft | 387 kts | 310° |
| 2026-05-04 02:52 | 63.95361 | -24.31594 | 40088 ft | 385 kts | 310° |
| 2026-05-04 02:52 | 63.99010 | -24.40536 | 40090 ft | 384 kts | 310° |
| 2026-05-04 02:53 | 64.02654 | -24.49507 | 40088 ft | 386 kts | 310° |
| 2026-05-04 02:53 | 64.06297 | -24.58509 | 40090 ft | 386 kts | 310° |
| 2026-05-04 02:54 | 64.09917 | -24.67494 | 40092 ft | 387 kts | 310° |
| 2026-05-04 02:54 | 64.13563 | -24.76579 | 40095 ft | 387 kts | 310° |
| 2026-05-04 02:55 | 64.19028 | -24.90270 | 40103 ft | 387 kts | 309° |
| 2026-05-04 02:56 | 64.22630 | -24.99339 | 40103 ft | 386 kts | 309° |
| 2026-05-04 02:56 | 64.26242 | -25.08475 | 40101 ft | 385 kts | 309° |
| 2026-05-04 02:57 | 64.29848 | -25.17632 | 40099 ft | 385 kts | 309° |
| 2026-05-04 02:57 | 64.33445 | -25.26806 | 40099 ft | 385 kts | 309° |
| 2026-05-04 02:58 | 64.37037 | -25.36003 | 40101 ft | 386 kts | 309° |
| 2026-05-04 02:58 | 64.40644 | -25.45282 | 40109 ft | 390 kts | 309° |
| 2026-05-04 02:59 | 64.44260 | -25.54616 | 40112 ft | 389 kts | 309° |
| 2026-05-04 02:59 | 64.47835 | -25.63892 | 40112 ft | 388 kts | 309° |
| 2026-05-04 03:00 | 64.51432 | -25.73260 | 40113 ft | 388 kts | 309° |
| 2026-05-04 03:00 | 64.55014 | -25.82631 | 40112 ft | 387 kts | 309° |
| 2026-05-04 03:01 | 64.58588 | -25.92020 | 40111 ft | 387 kts | 308° |
| 2026-05-04 03:01 | 64.62158 | -26.01445 | 40111 ft | 389 kts | 309° |
| 2026-05-04 03:02 | 64.65733 | -26.10911 | 40116 ft | 388 kts | 309° |
| 2026-05-04 03:02 | 64.69270 | -26.20328 | 40114 ft | 387 kts | 309° |
| 2026-05-04 03:03 | 64.72819 | -26.29814 | 40116 ft | 387 kts | 309° |
| 2026-05-04 03:03 | 64.76362 | -26.39326 | 40117 ft | 387 kts | 309° |
| 2026-05-04 03:04 | 64.79907 | -26.48885 | 40120 ft | 388 kts | 309° |
| 2026-05-04 03:04 | 64.83429 | -26.58422 | 40123 ft | 389 kts | 309° |
| 2026-05-04 03:05 | 64.86944 | -26.67978 | 40105 ft | 379 kts | 309° |
| 2026-05-04 03:05 | 64.90381 | -26.77374 | 40111 ft | 384 kts | 309° |
| 2026-05-04 03:06 | 64.93860 | -26.86914 | 40111 ft | 383 kts | 309° |
| 2026-05-04 03:06 | 64.97326 | -26.96466 | 40114 ft | 382 kts | 308° |
| 2026-05-04 03:07 | 65.00784 | -27.06035 | 40112 ft | 382 kts | 308° |
| 2026-05-04 03:07 | 65.04210 | -27.15557 | 40115 ft | 382 kts | 308° |
| 2026-05-04 03:08 | 65.07654 | -27.25170 | 40124 ft | 382 kts | 308° |
| 2026-05-04 03:08 | 65.11091 | -27.34810 | 40121 ft | 383 kts | 308° |
| 2026-05-04 03:09 | 65.14527 | -27.44486 | 40115 ft | 381 kts | 308° |
| 2026-05-04 03:09 | 65.17938 | -27.54134 | 40105 ft | 380 kts | 307° |
| 2026-05-04 03:10 | 65.21336 | -27.63788 | 40110 ft | 380 kts | 307° |
| 2026-05-04 03:10 | 65.24731 | -27.73475 | 40106 ft | 380 kts | 307° |
| 2026-05-04 03:11 | 65.28098 | -27.83127 | 40113 ft | 381 kts | 307° |
| 2026-05-04 03:11 | 65.31479 | -27.92861 | 40116 ft | 381 kts | 307° |
| 2026-05-04 03:12 | 65.34858 | -28.02632 | 40111 ft | 381 kts | 307° |
| 2026-05-04 03:12 | 65.38234 | -28.12435 | 40113 ft | 381 kts | 307° |
| 2026-05-04 03:13 | 65.41602 | -28.22262 | 40114 ft | 381 kts | 307° |
| 2026-05-04 03:13 | 65.44970 | -28.32134 | 40116 ft | 381 kts | 307° |
| 2026-05-04 03:14 | 65.48330 | -28.42023 | 40114 ft | 382 kts | 307° |
| 2026-05-04 03:14 | 65.51665 | -28.51884 | 40130 ft | 382 kts | 307° |
| 2026-05-04 03:15 | 65.55038 | -28.61905 | 40122 ft | 385 kts | 306° |
| 2026-05-04 03:15 | 65.58404 | -28.71945 | 40121 ft | 383 kts | 306° |
| 2026-05-04 03:16 | 65.61745 | -28.81960 | 40120 ft | 382 kts | 306° |
| 2026-05-04 03:16 | 65.65057 | -28.91933 | 40125 ft | 383 kts | 306° |
| 2026-05-04 03:17 | 65.68398 | -29.02041 | 40128 ft | 384 kts | 306° |
| 2026-05-04 03:17 | 65.71741 | -29.12198 | 40128 ft | 385 kts | 306° |
| 2026-05-04 03:18 | 65.75075 | -29.22377 | 40133 ft | 385 kts | 306° |
| 2026-05-04 03:18 | 65.78425 | -29.32657 | 40110 ft | 388 kts | 306° |
| 2026-05-04 03:19 | 65.81772 | -29.42960 | 40113 ft | 387 kts | 306° |
| 2026-05-04 03:19 | 65.85084 | -29.53219 | 40111 ft | 387 kts | 306° |
| 2026-05-04 03:20 | 65.88413 | -29.63570 | 40116 ft | 387 kts | 306° |
| 2026-05-04 03:20 | 65.91736 | -29.73956 | 40117 ft | 387 kts | 306° |
| 2026-05-04 03:21 | 65.95046 | -29.84346 | 40120 ft | 386 kts | 305° |
| 2026-05-04 03:21 | 65.98351 | -29.94774 | 40134 ft | 389 kts | 306° |
| 2026-05-04 03:22 | 66.01408 | -30.05692 | 40131 ft | 388 kts | 300° |
| 2026-05-04 03:22 | 66.04232 | -30.16904 | 40138 ft | 387 kts | 300° |
| 2026-05-04 03:23 | 66.07036 | -30.28241 | 40135 ft | 387 kts | 300° |
| 2026-05-04 03:23 | 66.09833 | -30.39561 | 40137 ft | 386 kts | 300° |
| 2026-05-04 03:24 | 66.12617 | -30.50899 | 40142 ft | 386 kts | 300° |
| 2026-05-04 03:24 | 66.15376 | -30.62191 | 40143 ft | 387 kts | 300° |
| 2026-05-04 03:25 | 66.18158 | -30.73635 | 40144 ft | 392 kts | 300° |
| 2026-05-04 03:25 | 66.20958 | -30.85215 | 40151 ft | 391 kts | 300° |
| 2026-05-04 03:26 | 66.23738 | -30.96774 | 40145 ft | 390 kts | 300° |
| 2026-05-04 03:26 | 66.26499 | -31.08316 | 40141 ft | 387 kts | 299° |
| 2026-05-04 03:27 | 66.29241 | -31.19833 | 40147 ft | 387 kts | 299° |
| 2026-05-04 03:27 | 66.31956 | -31.31305 | 40148 ft | 387 kts | 299° |
| 2026-05-04 03:28 | 66.34681 | -31.42877 | 40145 ft | 387 kts | 299° |
| 2026-05-04 03:28 | 66.37407 | -31.54515 | 40160 ft | 393 kts | 299° |
| 2026-05-04 03:29 | 66.40159 | -31.66323 | 40156 ft | 392 kts | 299° |
| 2026-05-04 03:29 | 66.42885 | -31.78093 | 40153 ft | 391 kts | 299° |
| 2026-05-04 03:30 | 66.45604 | -31.89892 | 40160 ft | 391 kts | 299° |
| 2026-05-04 03:30 | 66.48298 | -32.01644 | 40160 ft | 391 kts | 299° |
| 2026-05-04 03:31 | 66.51004 | -32.13514 | 40164 ft | 392 kts | 299° |
| 2026-05-04 03:31 | 66.53243 | -32.23391 | 40167 ft | 392 kts | 299° |
| 2026-05-04 03:32 | 66.55936 | -32.35327 | 40167 ft | 393 kts | 299° |
| 2026-05-04 03:32 | 66.58623 | -32.47295 | 40178 ft | 393 kts | 299° |
| 2026-05-04 03:33 | 66.61299 | -32.59289 | 40177 ft | 393 kts | 299° |
| 2026-05-04 03:33 | 66.63949 | -32.71229 | 40158 ft | 392 kts | 298° |
| 2026-05-04 03:34 | 66.66589 | -32.83192 | 40171 ft | 389 kts | 298° |
| 2026-05-04 03:34 | 66.69216 | -32.95160 | 40169 ft | 389 kts | 298° |
| 2026-05-04 03:35 | 66.71830 | -33.07140 | 40170 ft | 389 kts | 298° |
| 2026-05-04 03:35 | 66.74442 | -33.19177 | 40181 ft | 391 kts | 298° |
| 2026-05-04 03:36 | 66.77057 | -33.31296 | 40188 ft | 392 kts | 298° |
| 2026-05-04 03:36 | 66.79668 | -33.43465 | 40188 ft | 393 kts | 298° |
| 2026-05-04 03:37 | 66.82266 | -33.55643 | 40192 ft | 392 kts | 298° |
| 2026-05-04 03:37 | 66.84833 | -33.67744 | 40192 ft | 391 kts | 298° |
| 2026-05-04 03:38 | 66.87403 | -33.79929 | 40195 ft | 391 kts | 297° |
| 2026-05-04 03:38 | 66.89963 | -33.92136 | 40198 ft | 390 kts | 297° |
| 2026-05-04 03:39 | 66.92513 | -34.04367 | 40195 ft | 393 kts | 298° |
| 2026-05-04 03:39 | 66.95057 | -34.16635 | 40195 ft | 389 kts | 298° |
| 2026-05-04 03:40 | 66.97584 | -34.28902 | 40219 ft | 390 kts | 297° |
| 2026-05-04 03:40 | 67.00088 | -34.41121 | 40222 ft | 390 kts | 297° |
| 2026-05-04 03:41 | 67.02580 | -34.53348 | 40245 ft | 380 kts | 297° |
| 2026-05-04 03:41 | 67.05025 | -34.65428 | 40246 ft | 385 kts | 297° |
| 2026-05-04 03:42 | 67.07480 | -34.77615 | 40250 ft | 385 kts | 297° |
| 2026-05-04 03:42 | 67.09926 | -34.89831 | 40278 ft | 383 kts | 296° |
| 2026-05-04 03:43 | 67.12309 | -35.01807 | 40260 ft | 375 kts | 296° |
| 2026-05-04 03:43 | 67.14697 | -35.13876 | 40265 ft | 379 kts | 296° |
| 2026-05-04 03:44 | 67.17074 | -35.25951 | 40251 ft | 378 kts | 296° |
| 2026-05-04 03:44 | 67.19422 | -35.37954 | 40250 ft | 377 kts | 296° |
| 2026-05-04 03:45 | 67.21776 | -35.50060 | 40252 ft | 377 kts | 296° |
| 2026-05-04 03:45 | 67.24119 | -35.62179 | 40243 ft | 377 kts | 296° |
| 2026-05-04 03:46 | 67.26452 | -35.74316 | 40237 ft | 377 kts | 296° |
| 2026-05-04 03:46 | 67.28762 | -35.86401 | 40240 ft | 377 kts | 296° |
| 2026-05-04 03:47 | 67.31075 | -35.98574 | 40204 ft | 377 kts | 296° |
| 2026-05-04 03:47 | 67.33381 | -36.10789 | 40205 ft | 377 kts | 296° |
| 2026-05-04 03:48 | 67.35678 | -36.23025 | 40205 ft | 377 kts | 295° |
| 2026-05-04 03:48 | 67.37978 | -36.35349 | 40210 ft | 383 kts | 295° |
| 2026-05-04 03:49 | 67.40275 | -36.47732 | 40213 ft | 381 kts | 295° |
| 2026-05-04 03:49 | 67.42566 | -36.60158 | 40208 ft | 380 kts | 295° |
| 2026-05-04 03:50 | 67.44845 | -36.72593 | 40236 ft | 381 kts | 295° |
| 2026-05-04 03:50 | 67.47114 | -36.85052 | 40235 ft | 380 kts | 295° |
| 2026-05-04 03:51 | 67.49373 | -36.97529 | 40237 ft | 380 kts | 294° |
| 2026-05-04 03:51 | 67.51618 | -37.10012 | 40267 ft | 380 kts | 294° |
| 2026-05-04 03:52 | 67.53849 | -37.22490 | 40269 ft | 381 kts | 294° |
| 2026-05-04 03:52 | 67.56088 | -37.35086 | 40272 ft | 382 kts | 294° |
| 2026-05-04 03:53 | 67.58320 | -37.47727 | 40304 ft | 382 kts | 294° |
| 2026-05-04 03:53 | 67.60539 | -37.60374 | 40307 ft | 382 kts | 294° |
| 2026-05-04 03:54 | 67.62761 | -37.73124 | 40305 ft | 384 kts | 294° |
| 2026-05-04 03:54 | 67.64976 | -37.85904 | 40315 ft | 384 kts | 293° |
| 2026-05-04 03:55 | 67.67161 | -37.98599 | 40315 ft | 383 kts | 293° |
| 2026-05-04 03:55 | 67.69347 | -38.11378 | 40310 ft | 382 kts | 293° |
| 2026-05-04 03:56 | 67.71518 | -38.24153 | 40319 ft | 382 kts | 293° |
| 2026-05-04 03:56 | 67.73682 | -38.36974 | 40322 ft | 383 kts | 293° |
| 2026-05-04 03:57 | 67.75845 | -38.49869 | 40324 ft | 384 kts | 293° |
| 2026-05-04 03:57 | 67.78003 | -38.62816 | 40327 ft | 385 kts | 292° |
| 2026-05-04 03:58 | 67.81212 | -38.82231 | 40326 ft | 384 kts | 292° |
| 2026-05-04 03:58 | 67.83321 | -38.95103 | 40324 ft | 383 kts | 292° |
| 2026-05-04 03:59 | 67.85429 | -39.08046 | 40324 ft | 382 kts | 292° |
| 2026-05-04 03:59 | 67.87530 | -39.21034 | 40321 ft | 383 kts | 292° |
| 2026-05-04 04:00 | 67.89620 | -39.34041 | 40322 ft | 383 kts | 292° |
| 2026-05-04 04:00 | 67.91703 | -39.47091 | 40342 ft | 384 kts | 292° |
| 2026-05-04 04:01 | 67.93782 | -39.60212 | 40312 ft | 385 kts | 291° |
| 2026-05-04 04:01 | 67.95835 | -39.73251 | 40312 ft | 385 kts | 291° |
| 2026-05-04 04:02 | 67.97894 | -39.86421 | 40326 ft | 385 kts | 291° |
| 2026-05-04 04:02 | 67.99942 | -39.99618 | 40326 ft | 385 kts | 290° |
| 2026-05-04 04:03 | 68.01759 | -40.13051 | 40304 ft | 382 kts | 289° |
| 2026-05-04 04:03 | 68.03552 | -40.26388 | 40296 ft | 381 kts | 289° |
| 2026-05-04 04:04 | 68.05325 | -40.39747 | 40299 ft | 381 kts | 288° |
| 2026-05-04 04:04 | 68.07103 | -40.53218 | 40305 ft | 389 kts | 288° |
| 2026-05-04 04:05 | 68.08874 | -40.66749 | 40305 ft | 385 kts | 288° |
| 2026-05-04 04:05 | 68.10634 | -40.80302 | 40302 ft | 385 kts | 288° |
| 2026-05-04 04:06 | 68.12384 | -40.93883 | 40297 ft | 385 kts | 288° |
| 2026-05-04 04:06 | 68.14122 | -41.07476 | 40297 ft | 385 kts | 288° |
| 2026-05-04 04:07 | 68.15851 | -41.21106 | 40298 ft | 385 kts | 288° |
| 2026-05-04 04:07 | 68.17567 | -41.34748 | 40301 ft | 385 kts | 288° |
| 2026-05-04 04:08 | 68.19274 | -41.48426 | 40309 ft | 388 kts | 288° |
| 2026-05-04 04:08 | 68.20986 | -41.62255 | 40310 ft | 390 kts | 288° |
| 2026-05-04 04:09 | 68.22686 | -41.76098 | 40311 ft | 389 kts | 287° |
| 2026-05-04 04:09 | 68.24374 | -41.89959 | 40311 ft | 389 kts | 287° |
| 2026-05-04 04:10 | 68.26041 | -42.03764 | 40297 ft | 388 kts | 287° |
| 2026-05-04 04:10 | 68.27706 | -42.17670 | 40302 ft | 389 kts | 287° |
| 2026-05-04 04:11 | 68.29362 | -42.31618 | 40305 ft | 390 kts | 287° |
| 2026-05-04 04:11 | 68.31007 | -42.45584 | 40308 ft | 390 kts | 287° |
| 2026-05-04 04:12 | 68.32638 | -42.59558 | 40325 ft | 392 kts | 287° |
| 2026-05-04 04:12 | 68.34269 | -42.73652 | 40324 ft | 392 kts | 287° |
| 2026-05-04 04:13 | 68.35885 | -42.87747 | 40323 ft | 392 kts | 287° |
| 2026-05-04 04:13 | 68.37490 | -43.01861 | 40327 ft | 392 kts | 286° |
| 2026-05-04 04:14 | 68.39083 | -43.15996 | 40327 ft | 391 kts | 286° |
| 2026-05-04 04:14 | 68.40652 | -43.30039 | 40328 ft | 391 kts | 286° |
| 2026-05-04 04:15 | 68.42219 | -43.44197 | 40330 ft | 391 kts | 286° |
| 2026-05-04 04:15 | 68.43775 | -43.58377 | 40325 ft | 392 kts | 286° |
| 2026-05-04 04:16 | 68.45325 | -43.72632 | 40320 ft | 393 kts | 286° |
| 2026-05-04 04:16 | 68.46853 | -43.86818 | 40343 ft | 393 kts | 286° |
| 2026-05-04 04:17 | 68.48379 | -44.01116 | 40342 ft | 393 kts | 285° |
| 2026-05-04 04:17 | 68.49893 | -44.15434 | 40344 ft | 393 kts | 285° |
| 2026-05-04 04:18 | 68.51394 | -44.29768 | 40356 ft | 393 kts | 285° |
| 2026-05-04 04:18 | 68.52883 | -44.44117 | 40355 ft | 393 kts | 285° |
| 2026-05-04 04:19 | 68.54110 | -44.56055 | 40349 ft | 392 kts | 285° |
| 2026-05-04 04:19 | 68.55575 | -44.70426 | 40355 ft | 393 kts | 285° |
| 2026-05-04 04:20 | 68.57033 | -44.84867 | 40355 ft | 394 kts | 285° |
| 2026-05-04 04:20 | 68.58480 | -44.99341 | 40355 ft | 394 kts | 285° |
| 2026-05-04 04:21 | 68.59913 | -45.13823 | 40365 ft | 394 kts | 285° |
| 2026-05-04 04:21 | 68.61335 | -45.28331 | 40368 ft | 394 kts | 285° |
| 2026-05-04 04:22 | 68.62744 | -45.42858 | 40375 ft | 394 kts | 284° |
| 2026-05-04 04:22 | 68.64132 | -45.57309 | 40377 ft | 394 kts | 284° |
| 2026-05-04 04:23 | 68.65518 | -45.71899 | 40374 ft | 394 kts | 284° |
| 2026-05-04 04:23 | 68.66889 | -45.86472 | 40372 ft | 393 kts | 284° |
| 2026-05-04 04:24 | 68.68237 | -46.00952 | 40372 ft | 393 kts | 284° |
| 2026-05-04 04:24 | 68.69579 | -46.15515 | 40375 ft | 393 kts | 284° |
| 2026-05-04 04:25 | 68.70909 | -46.30108 | 40370 ft | 393 kts | 284° |
| 2026-05-04 04:25 | 68.72218 | -46.44622 | 40373 ft | 392 kts | 283° |
| 2026-05-04 04:26 | 68.73520 | -46.59212 | 40371 ft | 392 kts | 283° |
| 2026-05-04 04:26 | 68.74809 | -46.73822 | 40381 ft | 393 kts | 283° |
| 2026-05-04 04:27 | 68.76090 | -46.88484 | 40383 ft | 394 kts | 283° |
| 2026-05-04 04:27 | 68.77360 | -47.03200 | 40387 ft | 394 kts | 283° |
| 2026-05-04 04:28 | 68.78619 | -47.17944 | 40390 ft | 395 kts | 283° |
| 2026-05-04 04:28 | 68.79865 | -47.32715 | 40390 ft | 395 kts | 283° |
| 2026-05-04 04:29 | 68.81099 | -47.47500 | 40396 ft | 394 kts | 283° |
| 2026-05-04 04:29 | 68.82312 | -47.62212 | 40403 ft | 394 kts | 283° |
| 2026-05-04 04:30 | 68.83520 | -47.77027 | 40371 ft | 394 kts | 283° |
| 2026-05-04 04:30 | 68.84710 | -47.91800 | 40402 ft | 393 kts | 283° |
| 2026-05-04 04:31 | 68.85889 | -48.06601 | 40401 ft | 394 kts | 282° |
| 2026-05-04 04:31 | 68.87057 | -48.21450 | 40401 ft | 395 kts | 282° |
| 2026-05-04 04:32 | 68.88214 | -48.36346 | 40402 ft | 395 kts | 282° |
| 2026-05-04 04:32 | 68.89355 | -48.51208 | 40392 ft | 394 kts | 282° |
| 2026-05-04 04:33 | 68.90477 | -48.66013 | 40390 ft | 393 kts | 282° |
| 2026-05-04 04:33 | 68.91588 | -48.80858 | 40389 ft | 392 kts | 282° |
| 2026-05-04 04:34 | 68.92687 | -48.95721 | 40390 ft | 393 kts | 282° |
| 2026-05-04 04:34 | 68.93768 | -49.10542 | 40394 ft | 393 kts | 282° |
| 2026-05-04 04:35 | 68.94843 | -49.25456 | 40392 ft | 394 kts | 282° |
| 2026-05-04 04:35 | 68.95905 | -49.40405 | 40395 ft | 394 kts | 281° |
| 2026-05-04 04:36 | 68.96956 | -49.55385 | 40391 ft | 394 kts | 281° |
| 2026-05-04 04:36 | 68.97993 | -49.70366 | 40392 ft | 394 kts | 281° |
| 2026-05-04 04:37 | 69.00000 | -50.00286 | 40377 ft | 393 kts | 276° |
| 2026-05-04 04:38 | 69.00441 | -50.15510 | 40386 ft | 394 kts | 276° |
| 2026-05-04 04:38 | 69.00878 | -50.30746 | 40388 ft | 394 kts | 275° |
| 2026-05-04 04:39 | 69.01280 | -50.45882 | 40392 ft | 393 kts | 275° |
| 2026-05-04 04:39 | 69.01681 | -50.61106 | 40389 ft | 393 kts | 275° |
| 2026-05-04 04:40 | 69.02064 | -50.76344 | 40414 ft | 394 kts | 275° |
| 2026-05-04 04:40 | 69.02435 | -50.91583 | 40419 ft | 394 kts | 275° |
| 2026-05-04 04:41 | 69.02792 | -51.06856 | 40419 ft | 394 kts | 275° |
| 2026-05-04 04:41 | 69.03137 | -51.22132 | 40415 ft | 394 kts | 274° |
| 2026-05-04 04:42 | 69.03467 | -51.37403 | 40417 ft | 394 kts | 274° |
| 2026-05-04 04:42 | 69.03781 | -51.52588 | 40411 ft | 393 kts | 274° |
| 2026-05-04 04:43 | 69.04083 | -51.67815 | 40385 ft | 393 kts | 274° |
| 2026-05-04 04:43 | 69.04373 | -51.83106 | 40389 ft | 394 kts | 274° |
| 2026-05-04 04:44 | 69.04649 | -51.98400 | 40388 ft | 394 kts | 274° |
| 2026-05-04 04:44 | 69.04912 | -52.13713 | 40390 ft | 395 kts | 274° |
| 2026-05-04 04:45 | 69.05159 | -52.28943 | 40404 ft | 394 kts | 273° |
| 2026-05-04 04:47 | 69.05922 | -52.82528 | 40413 ft | 396 kts | 273° |
| 2026-05-04 04:47 | 69.06110 | -52.97886 | 40412 ft | 395 kts | 273° |
| 2026-05-04 04:48 | 69.06283 | -53.13213 | 40407 ft | 394 kts | 272° |
| 2026-05-04 04:49 | 69.06657 | -53.51450 | 40404 ft | 394 kts | 272° |
| 2026-05-04 04:49 | 69.06783 | -53.66784 | 40413 ft | 395 kts | 272° |
| 2026-05-04 04:50 | 69.06896 | -53.82176 | 40418 ft | 396 kts | 272° |
| 2026-05-04 04:50 | 69.06994 | -53.97472 | 40419 ft | 395 kts | 272° |
| 2026-05-04 04:51 | 69.07078 | -54.12827 | 40411 ft | 395 kts | 271° |
| 2026-05-04 04:51 | 69.07150 | -54.28187 | 40417 ft | 394 kts | 271° |
| 2026-05-04 04:52 | 69.07207 | -54.43518 | 40416 ft | 393 kts | 271° |
| 2026-05-04 04:52 | 69.07250 | -54.58832 | 40415 ft | 394 kts | 271° |
| 2026-05-04 04:53 | 69.07280 | -54.74167 | 40422 ft | 395 kts | 271° |
| 2026-05-04 04:53 | 69.07296 | -54.89542 | 40435 ft | 396 kts | 271° |
| 2026-05-04 04:54 | 69.07300 | -55.04874 | 40396 ft | 396 kts | 270° |
| 2026-05-04 04:54 | 69.07288 | -55.20267 | 40415 ft | 396 kts | 270° |
| 2026-05-04 04:55 | 69.07263 | -55.35671 | 40416 ft | 396 kts | 270° |
| 2026-05-04 04:55 | 69.07224 | -55.51113 | 40420 ft | 397 kts | 270° |
| 2026-05-04 04:56 | 69.07171 | -55.66566 | 40429 ft | 397 kts | 270° |
| 2026-05-04 04:56 | 69.07104 | -55.82006 | 40429 ft | 396 kts | 270° |
| 2026-05-04 04:57 | 69.07023 | -55.97413 | 40427 ft | 395 kts | 270° |
| 2026-05-04 04:57 | 69.06930 | -56.12688 | 40444 ft | 395 kts | 270° |
| 2026-05-04 04:58 | 69.06822 | -56.28053 | 40443 ft | 396 kts | 269° |
| 2026-05-04 04:58 | 69.06700 | -56.43475 | 40446 ft | 397 kts | 269° |
| 2026-05-04 04:59 | 69.06564 | -56.58940 | 40460 ft | 397 kts | 269° |
| 2026-05-04 04:59 | 69.06414 | -56.74351 | 40460 ft | 396 kts | 269° |
| 2026-05-04 05:00 | 69.06251 | -56.89757 | 40454 ft | 397 kts | 269° |
| 2026-05-04 05:01 | 69.05979 | -57.12913 | 40464 ft | 398 kts | 269° |
| 2026-05-04 05:01 | 69.05782 | -57.28294 | 40466 ft | 398 kts | 268° |
| 2026-05-04 05:02 | 69.05568 | -57.43778 | 40465 ft | 398 kts | 268° |
| 2026-05-04 05:02 | 69.05342 | -57.59208 | 40474 ft | 397 kts | 268° |
| 2026-05-04 05:03 | 69.05102 | -57.74626 | 40468 ft | 396 kts | 268° |
| 2026-05-04 05:04 | 69.04583 | -58.05305 | 40467 ft | 397 kts | 268° |
| 2026-05-04 05:04 | 69.04301 | -58.20724 | 40469 ft | 397 kts | 268° |
| 2026-05-04 05:06 | 69.03031 | -58.82599 | 40480 ft | 400 kts | 267° |
| 2026-05-04 05:07 | 69.02738 | -58.95485 | 40485 ft | 400 kts | 266° |
| 2026-05-04 05:07 | 69.02373 | -59.10979 | 40490 ft | 400 kts | 266° |
| 2026-05-04 05:09 | 69.00560 | -59.80522 | 40496 ft | 400 kts | 266° |
| 2026-05-04 05:10 | 69.00120 | -59.95926 | 40501 ft | 401 kts | 266° |
| 2026-05-04 05:10 | 68.99838 | -60.11482 | 40515 ft | 401 kts | 268° |
| 2026-05-04 05:11 | 68.99562 | -60.27050 | 40518 ft | 402 kts | 268° |
| 2026-05-04 05:11 | 68.99304 | -60.42637 | 40514 ft | 403 kts | 267° |
| 2026-05-04 05:12 | 68.99015 | -60.58273 | 40524 ft | 404 kts | 267° |
| 2026-05-04 05:12 | 68.98721 | -60.73814 | 40522 ft | 403 kts | 267° |
| 2026-05-04 05:13 | 68.98408 | -60.89437 | 40525 ft | 403 kts | 267° |
| 2026-05-04 05:13 | 68.98081 | -61.05060 | 40533 ft | 403 kts | 266° |
| 2026-05-04 05:14 | 68.97741 | -61.20641 | 40524 ft | 403 kts | 266° |
| 2026-05-04 05:14 | 68.97390 | -61.36103 | 40528 ft | 402 kts | 266° |
| 2026-05-04 05:15 | 68.97022 | -61.51650 | 40532 ft | 402 kts | 266° |
| 2026-05-04 05:15 | 68.96640 | -61.67189 | 40534 ft | 402 kts | 266° |
| 2026-05-04 05:16 | 68.96245 | -61.82713 | 40534 ft | 402 kts | 266° |
| 2026-05-04 05:16 | 68.95832 | -61.98215 | 40537 ft | 402 kts | 265° |
| 2026-05-04 05:17 | 68.95295 | -62.13605 | 40542 ft | 402 kts | 265° |
| 2026-05-04 05:17 | 68.94774 | -62.29150 | 40550 ft | 404 kts | 265° |
| 2026-05-04 05:18 | 68.94231 | -62.44631 | 40558 ft | 404 kts | 264° |
| 2026-05-04 05:18 | 68.93672 | -62.60196 | 40553 ft | 404 kts | 264° |
| 2026-05-04 05:19 | 68.93100 | -62.75752 | 40554 ft | 404 kts | 264° |
| 2026-05-04 05:19 | 68.92512 | -62.91292 | 40558 ft | 404 kts | 264° |
| 2026-05-04 05:20 | 68.91911 | -63.06832 | 40553 ft | 404 kts | 264° |
| 2026-05-04 05:20 | 68.91297 | -63.22335 | 40556 ft | 403 kts | 264° |
| 2026-05-04 05:21 | 68.90673 | -63.37718 | 40561 ft | 403 kts | 264° |
| 2026-05-04 05:21 | 68.90032 | -63.53184 | 40558 ft | 403 kts | 264° |
| 2026-05-04 05:22 | 68.89376 | -63.68658 | 40561 ft | 403 kts | 263° |
| 2026-05-04 05:22 | 68.88706 | -63.84114 | 40561 ft | 403 kts | 263° |
| 2026-05-04 05:23 | 68.88020 | -63.99604 | 40551 ft | 407 kts | 263° |
| 2026-05-04 05:23 | 68.87320 | -64.15082 | 40561 ft | 406 kts | 263° |
| 2026-05-04 05:24 | 68.86604 | -64.30607 | 40562 ft | 405 kts | 263° |
| 2026-05-04 05:24 | 68.85874 | -64.46106 | 40553 ft | 405 kts | 263° |
| 2026-05-04 05:25 | 68.85131 | -64.61572 | 40565 ft | 405 kts | 262° |
| 2026-05-04 05:25 | 68.84379 | -64.76936 | 40562 ft | 405 kts | 262° |
| 2026-05-04 05:26 | 68.83608 | -64.92392 | 40570 ft | 405 kts | 262° |
| 2026-05-04 05:26 | 68.82822 | -65.07843 | 40566 ft | 405 kts | 262° |
| 2026-05-04 05:28 | 68.79541 | -65.69508 | 40553 ft | 407 kts | 261° |
| 2026-05-04 05:29 | 68.78676 | -65.85053 | 40559 ft | 409 kts | 261° |
| 2026-05-04 05:29 | 68.77800 | -66.00562 | 40555 ft | 408 kts | 261° |
| 2026-05-04 05:31 | 68.74160 | -66.62314 | 40559 ft | 408 kts | 260° |
| 2026-05-04 05:32 | 68.73213 | -66.77746 | 40559 ft | 408 kts | 260° |
| 2026-05-04 05:33 | 68.71767 | -67.00879 | 40563 ft | 409 kts | 260° |
| 2026-05-04 05:33 | 68.70783 | -67.16310 | 40570 ft | 409 kts | 260° |
| 2026-05-04 05:34 | 68.69790 | -67.31650 | 40565 ft | 410 kts | 259° |
| 2026-05-04 05:34 | 68.68779 | -67.47055 | 40541 ft | 409 kts | 259° |
| 2026-05-04 05:35 | 68.67754 | -67.62430 | 40538 ft | 407 kts | 259° |
| 2026-05-04 05:35 | 68.66717 | -67.77758 | 40542 ft | 410 kts | 259° |
| 2026-05-04 05:36 | 68.65664 | -67.93113 | 40539 ft | 407 kts | 259° |
| 2026-05-04 05:36 | 68.64600 | -68.08405 | 40512 ft | 404 kts | 258° |
| 2026-05-04 05:37 | 68.63535 | -68.23505 | 40504 ft | 407 kts | 258° |
| 2026-05-04 05:37 | 68.62455 | -68.38612 | 40502 ft | 402 kts | 258° |
| 2026-05-04 05:38 | 68.60804 | -68.61328 | 40499 ft | 403 kts | 258° |
| 2026-05-04 05:38 | 68.59682 | -68.76511 | 40474 ft | 408 kts | 258° |
| 2026-05-04 05:39 | 68.57988 | -68.99057 | 40449 ft | 409 kts | 258° |
| 2026-05-04 05:40 | 68.56258 | -69.21645 | 40457 ft | 406 kts | 257° |
| 2026-05-04 05:40 | 68.55094 | -69.36613 | 40423 ft | 399 kts | 257° |
| 2026-05-04 05:41 | 68.53917 | -69.51562 | 40416 ft | 401 kts | 257° |
| 2026-05-04 05:41 | 68.52730 | -69.66435 | 40392 ft | 404 kts | 257° |
| 2026-05-04 05:42 | 68.51528 | -69.81341 | 40395 ft | 398 kts | 257° |
| 2026-05-04 05:42 | 68.50312 | -69.96214 | 40397 ft | 403 kts | 257° |
| 2026-05-04 05:43 | 68.49268 | -70.11115 | 40393 ft | 403 kts | 259° |
| 2026-05-04 05:45 | 68.45134 | -70.70876 | 40366 ft | 403 kts | 258° |
| 2026-05-04 05:47 | 68.40764 | -71.30850 | 40338 ft | 405 kts | 257° |
| 2026-05-04 05:47 | 68.39631 | -71.45901 | 40342 ft | 405 kts | 257° |
| 2026-05-04 05:48 | 68.38488 | -71.60891 | 40350 ft | 409 kts | 257° |
| 2026-05-04 05:48 | 68.37327 | -71.75922 | 40322 ft | 406 kts | 257° |
| 2026-05-04 05:49 | 68.36149 | -71.90982 | 40329 ft | 404 kts | 257° |
| 2026-05-04 05:49 | 68.34966 | -72.05922 | 40321 ft | 409 kts | 257° |
| 2026-05-04 05:51 | 68.30095 | -72.65573 | 40309 ft | 404 kts | 256° |
| 2026-05-04 05:52 | 68.28839 | -72.80553 | 40312 ft | 410 kts | 255° |
| 2026-05-04 05:52 | 68.27553 | -72.95625 | 40310 ft | 415 kts | 255° |
| 2026-05-04 05:54 | 68.22522 | -73.53123 | 40316 ft | 410 kts | 255° |
| 2026-05-04 05:55 | 68.20949 | -73.70607 | 40312 ft | 410 kts | 255° |
| 2026-05-04 05:55 | 68.19805 | -73.83167 | 40304 ft | 415 kts | 255° |
| 2026-05-04 05:56 | 68.18437 | -73.98014 | 40292 ft | 411 kts | 255° |
| 2026-05-04 05:56 | 68.17046 | -74.12986 | 40294 ft | 409 kts | 255° |
| 2026-05-04 05:57 | 68.15644 | -74.27922 | 40295 ft | 414 kts | 254° |
| 2026-05-04 05:57 | 68.14226 | -74.42828 | 40295 ft | 414 kts | 254° |
| 2026-05-04 05:58 | 68.12795 | -74.57746 | 40282 ft | 414 kts | 253° |
| 2026-05-04 05:58 | 68.11330 | -74.72856 | 40300 ft | 418 kts | 253° |
| 2026-05-04 05:59 | 68.09852 | -74.87889 | 40292 ft | 419 kts | 253° |
| 2026-05-04 05:59 | 68.08364 | -75.02920 | 40298 ft | 418 kts | 254° |
| 2026-05-04 06:00 | 68.06866 | -75.17887 | 40299 ft | 416 kts | 253° |
| 2026-05-04 06:00 | 68.05343 | -75.32916 | 40295 ft | 418 kts | 252° |
| 2026-05-04 06:01 | 68.03817 | -75.47870 | 40300 ft | 420 kts | 252° |
| 2026-05-04 06:03 | 67.97584 | -76.07337 | 40284 ft | 418 kts | 252° |
| 2026-05-04 06:05 | 67.90249 | -76.74415 | 40259 ft | 420 kts | 252° |
| 2026-05-04 06:06 | 67.88577 | -76.89335 | 40263 ft | 422 kts | 251° |
| 2026-05-04 06:06 | 67.86891 | -77.04211 | 40263 ft | 422 kts | 251° |
| 2026-05-04 06:07 | 67.85190 | -77.19066 | 40259 ft | 421 kts | 251° |
| 2026-05-04 06:07 | 67.83491 | -77.33832 | 40248 ft | 419 kts | 251° |
| 2026-05-04 06:08 | 67.81758 | -77.48679 | 40245 ft | 421 kts | 250° |
| 2026-05-04 06:08 | 67.80021 | -77.63486 | 40250 ft | 422 kts | 250° |
| 2026-05-04 06:09 | 67.78279 | -77.78154 | 40254 ft | 422 kts | 250° |
| 2026-05-04 06:11 | 67.71099 | -78.37291 | 40242 ft | 425 kts | 249° |
| 2026-05-04 06:13 | 67.63697 | -78.96153 | 40244 ft | 423 kts | 249° |
| 2026-05-04 06:14 | 67.57047 | -79.47353 | 40237 ft | 423 kts | 249° |
| 2026-05-04 06:15 | 67.55116 | -79.61944 | 40240 ft | 424 kts | 248° |
| 2026-05-04 06:15 | 67.53173 | -79.76520 | 40243 ft | 425 kts | 248° |
| 2026-05-04 06:16 | 67.51225 | -79.90959 | 40241 ft | 424 kts | 249° |
| 2026-05-04 06:16 | 67.49142 | -80.05339 | 40245 ft | 423 kts | 246° |
| 2026-05-04 06:17 | 67.46963 | -80.19629 | 40227 ft | 422 kts | 246° |
| 2026-05-04 06:17 | 67.44724 | -80.33818 | 40234 ft | 422 kts | 246° |
| 2026-05-04 06:18 | 67.42488 | -80.48017 | 40233 ft | 422 kts | 245° |
| 2026-05-04 06:20 | 67.33416 | -81.04396 | 40228 ft | 424 kts | 245° |
| 2026-05-04 06:21 | 67.27636 | -81.39475 | 40223 ft | 425 kts | 244° |
| 2026-05-04 06:22 | 67.25301 | -81.53521 | 40225 ft | 425 kts | 244° |
| 2026-05-04 06:25 | 67.08568 | -82.51033 | 40208 ft | 426 kts | 244° |
| 2026-05-04 06:26 | 67.06123 | -82.64871 | 40211 ft | 426 kts | 244° |
| 2026-05-04 06:26 | 67.03669 | -82.78694 | 40219 ft | 430 kts | 243° |
| 2026-05-04 06:27 | 66.97461 | -83.13210 | 40191 ft | 428 kts | 243° |
| 2026-05-04 06:28 | 66.94955 | -83.27001 | 40195 ft | 427 kts | 243° |
| 2026-05-04 06:28 | 66.92437 | -83.40734 | 40194 ft | 428 kts | 242° |
| 2026-05-04 06:29 | 66.89900 | -83.54474 | 40192 ft | 428 kts | 242° |
| 2026-05-04 06:29 | 66.87354 | -83.68176 | 40167 ft | 428 kts | 242° |
| 2026-05-04 06:30 | 66.84815 | -83.81765 | 40167 ft | 428 kts | 242° |
| 2026-05-04 06:30 | 66.82243 | -83.95425 | 40176 ft | 428 kts | 242° |
| 2026-05-04 06:31 | 66.79666 | -84.09040 | 40171 ft | 428 kts | 242° |
| 2026-05-04 06:31 | 66.77066 | -84.22643 | 40155 ft | 430 kts | 242° |
| 2026-05-04 06:33 | 66.66528 | -84.76980 | 40155 ft | 430 kts | 242° |
| 2026-05-04 06:34 | 66.63865 | -84.90513 | 40157 ft | 430 kts | 242° |
| 2026-05-04 06:34 | 66.61189 | -85.03991 | 40156 ft | 431 kts | 241° |
| 2026-05-04 06:36 | 66.50380 | -85.57611 | 40144 ft | 431 kts | 240° |
| 2026-05-04 06:37 | 66.47631 | -85.71008 | 40143 ft | 434 kts | 242° |
| 2026-05-04 06:37 | 66.44861 | -85.84456 | 40155 ft | 434 kts | 241° |
| 2026-05-04 06:38 | 66.42079 | -85.97848 | 40150 ft | 434 kts | 241° |
| 2026-05-04 06:40 | 66.30875 | -86.51011 | 40154 ft | 434 kts | 240° |
| 2026-05-04 06:40 | 66.28034 | -86.64272 | 40153 ft | 436 kts | 241° |
| 2026-05-04 06:41 | 66.25176 | -86.77536 | 40160 ft | 435 kts | 240° |
| 2026-05-04 06:41 | 66.22315 | -86.90736 | 40166 ft | 435 kts | 240° |
| 2026-05-04 06:42 | 66.19918 | -87.01725 | 40151 ft | 437 kts | 240° |
| 2026-05-04 06:44 | 66.08288 | -87.54276 | 40136 ft | 437 kts | 239° |
| 2026-05-04 06:44 | 66.05340 | -87.67412 | 40139 ft | 438 kts | 239° |
| 2026-05-04 06:45 | 66.02378 | -87.80490 | 40142 ft | 437 kts | 239° |
| 2026-05-04 06:45 | 65.99413 | -87.93542 | 40140 ft | 438 kts | 239° |
| 2026-05-04 06:46 | 65.96426 | -88.06580 | 40119 ft | 438 kts | 239° |
| 2026-05-04 06:46 | 65.93438 | -88.19572 | 40119 ft | 437 kts | 239° |
| 2026-05-04 06:48 | 65.81390 | -88.71128 | 40102 ft | 437 kts | 238° |
| 2026-05-04 06:50 | 65.69141 | -89.22337 | 40104 ft | 438 kts | 238° |
| 2026-05-04 06:51 | 65.66075 | -89.34948 | 40111 ft | 437 kts | 238° |
| 2026-05-04 06:51 | 65.62979 | -89.47636 | 40111 ft | 437 kts | 238° |
| 2026-05-04 06:52 | 65.59869 | -89.60291 | 40107 ft | 438 kts | 238° |
| 2026-05-04 06:52 | 65.56746 | -89.72942 | 40101 ft | 438 kts | 238° |
| 2026-05-04 06:53 | 65.53609 | -89.85571 | 40100 ft | 438 kts | 237° |
| 2026-05-04 06:53 | 65.50485 | -89.98071 | 40102 ft | 437 kts | 237° |
| 2026-05-04 06:54 | 65.47447 | -90.10859 | 40076 ft | 441 kts | 237° |
| 2026-05-04 06:54 | 65.44345 | -90.23584 | 40080 ft | 440 kts | 238° |
| 2026-05-04 06:55 | 65.41303 | -90.36343 | 40073 ft | 440 kts | 238° |
| 2026-05-04 06:55 | 65.38211 | -90.49021 | 40077 ft | 440 kts | 238° |
| 2026-05-04 06:57 | 65.25836 | -90.99374 | 40063 ft | 438 kts | 237° |
| 2026-05-04 06:58 | 65.22718 | -91.11882 | 40051 ft | 438 kts | 237° |
| 2026-05-04 06:58 | 65.19585 | -91.24369 | 40055 ft | 439 kts | 237° |
| 2026-05-04 06:59 | 65.16447 | -91.36809 | 40063 ft | 438 kts | 237° |
| 2026-05-04 06:59 | 65.13300 | -91.49224 | 40062 ft | 438 kts | 237° |
| 2026-05-04 07:01 | 65.00613 | -91.98538 | 40048 ft | 438 kts | 237° |
| 2026-05-04 07:02 | 64.97415 | -92.10792 | 40049 ft | 438 kts | 237° |
| 2026-05-04 07:02 | 64.94193 | -92.23071 | 40033 ft | 441 kts | 237° |
| 2026-05-04 07:03 | 64.90949 | -92.35369 | 40039 ft | 440 kts | 236° |
| 2026-05-04 07:03 | 64.87729 | -92.47518 | 40036 ft | 440 kts | 237° |
| 2026-05-04 07:04 | 64.84473 | -92.59723 | 40039 ft | 439 kts | 237° |
| 2026-05-04 07:04 | 64.81214 | -92.71877 | 40041 ft | 440 kts | 237° |
| 2026-05-04 07:05 | 64.77940 | -92.84014 | 40042 ft | 441 kts | 236° |
| 2026-05-04 07:05 | 64.74657 | -92.96129 | 40050 ft | 440 kts | 237° |
| 2026-05-04 07:06 | 64.69720 | -93.14214 | 40027 ft | 440 kts | 236° |
| 2026-05-04 07:07 | 64.66432 | -93.26182 | 40037 ft | 440 kts | 237° |
| 2026-05-04 07:09 | 64.53139 | -93.73913 | 40030 ft | 440 kts | 236° |
| 2026-05-04 07:09 | 64.49779 | -93.85823 | 40042 ft | 440 kts | 236° |
| 2026-05-04 07:10 | 64.46415 | -93.97676 | 40043 ft | 439 kts | 236° |
| 2026-05-04 07:12 | 64.32859 | -94.44832 | 40038 ft | 442 kts | 236° |
| 2026-05-04 07:12 | 64.29441 | -94.56565 | 40049 ft | 441 kts | 235° |
| 2026-05-04 07:13 | 64.25998 | -94.68322 | 40039 ft | 443 kts | 235° |
| 2026-05-04 07:13 | 64.22547 | -94.80053 | 40050 ft | 442 kts | 235° |
| 2026-05-04 07:14 | 64.13881 | -95.09227 | 40048 ft | 443 kts | 234° |
| 2026-05-04 07:15 | 64.10385 | -95.20887 | 40052 ft | 444 kts | 234° |
| 2026-05-04 07:15 | 64.06881 | -95.32516 | 40053 ft | 444 kts | 234° |
| 2026-05-04 07:16 | 64.03392 | -95.44038 | 40054 ft | 443 kts | 234° |
| 2026-05-04 07:16 | 63.99873 | -95.55602 | 40041 ft | 443 kts | 234° |
| 2026-05-04 07:17 | 63.96346 | -95.67129 | 40055 ft | 443 kts | 234° |
| 2026-05-04 07:17 | 63.92813 | -95.78616 | 40055 ft | 444 kts | 234° |
| 2026-05-04 07:18 | 63.89253 | -95.90133 | 40055 ft | 445 kts | 234° |
| 2026-05-04 07:18 | 63.85710 | -96.01538 | 40053 ft | 444 kts | 234° |
| 2026-05-04 07:19 | 63.82135 | -96.12982 | 40055 ft | 445 kts | 234° |
| 2026-05-04 07:19 | 63.78546 | -96.24421 | 40065 ft | 445 kts | 234° |
| 2026-05-04 07:20 | 63.74976 | -96.35739 | 40056 ft | 441 kts | 234° |
| 2026-05-04 07:20 | 63.71380 | -96.47083 | 40042 ft | 443 kts | 234° |
| 2026-05-04 07:22 | 63.56965 | -96.91991 | 40049 ft | 443 kts | 233° |
| 2026-05-04 07:23 | 63.53306 | -97.03247 | 40056 ft | 446 kts | 233° |
| 2026-05-04 07:23 | 63.49653 | -97.14433 | 40053 ft | 445 kts | 233° |
| 2026-05-04 07:24 | 63.46011 | -97.25530 | 40063 ft | 445 kts | 233° |
| 2026-05-04 07:24 | 63.42337 | -97.36669 | 40048 ft | 444 kts | 233° |
| 2026-05-04 07:26 | 63.27549 | -97.80953 | 40040 ft | 446 kts | 233° |
| 2026-05-04 07:27 | 63.23821 | -97.91985 | 40046 ft | 445 kts | 233° |
| 2026-05-04 07:27 | 63.20096 | -98.02951 | 40046 ft | 445 kts | 232° |
| 2026-05-04 07:28 | 63.16381 | -98.13836 | 40050 ft | 446 kts | 232° |
| 2026-05-04 07:28 | 63.12630 | -98.24773 | 40047 ft | 447 kts | 232° |
| 2026-05-04 07:29 | 63.08865 | -98.35699 | 40044 ft | 446 kts | 232° |
| 2026-05-04 07:29 | 63.05089 | -98.46605 | 40058 ft | 446 kts | 232° |
| 2026-05-04 07:30 | 63.01331 | -98.57405 | 40059 ft | 448 kts | 232° |
| 2026-05-04 07:30 | 62.97539 | -98.68249 | 40056 ft | 446 kts | 232° |
| 2026-05-04 07:31 | 62.93746 | -98.79051 | 40058 ft | 445 kts | 232° |
| 2026-05-04 07:33 | 62.79107 | -99.20247 | 40038 ft | 446 kts | 232° |
| 2026-05-04 07:33 | 62.75289 | -99.30869 | 40066 ft | 448 kts | 232° |
| 2026-05-04 07:34 | 62.71434 | -99.41546 | 40073 ft | 447 kts | 232° |
| 2026-05-04 07:34 | 62.67583 | -99.52160 | 40061 ft | 446 kts | 232° |
| 2026-05-04 07:35 | 62.63709 | -99.62787 | 40064 ft | 448 kts | 231° |
| 2026-05-04 07:35 | 62.59859 | -99.73300 | 40067 ft | 448 kts | 231° |
| 2026-05-04 07:36 | 62.55967 | -99.83877 | 40074 ft | 448 kts | 231° |
| 2026-05-04 07:38 | 62.40574 | -100.26223 | 40081 ft | 448 kts | 232° |
| 2026-05-04 07:38 | 62.36723 | -100.36786 | 40081 ft | 447 kts | 232° |
| 2026-05-04 07:39 | 62.32889 | -100.47325 | 40071 ft | 447 kts | 232° |
| 2026-05-04 07:39 | 62.29057 | -100.57779 | 40097 ft | 448 kts | 232° |
| 2026-05-04 07:40 | 62.25201 | -100.68263 | 40086 ft | 447 kts | 232° |
| 2026-05-04 07:40 | 62.21337 | -100.78716 | 40087 ft | 447 kts | 232° |
| 2026-05-04 07:41 | 62.17464 | -100.89145 | 40095 ft | 447 kts | 232° |
| 2026-05-04 07:41 | 62.13585 | -100.99546 | 40090 ft | 448 kts | 232° |
| 2026-05-04 07:42 | 62.09686 | -101.09949 | 40095 ft | 448 kts | 232° |
| 2026-05-04 07:42 | 62.05789 | -101.20300 | 40093 ft | 448 kts | 232° |
| 2026-05-04 07:43 | 62.01899 | -101.30589 | 40108 ft | 449 kts | 232° |
| 2026-05-04 07:43 | 61.97981 | -101.40902 | 40102 ft | 447 kts | 232° |
| 2026-05-04 07:44 | 61.94060 | -101.51176 | 40089 ft | 448 kts | 231° |
| 2026-05-04 07:44 | 61.90118 | -101.61461 | 40102 ft | 448 kts | 231° |
| 2026-05-04 07:45 | 61.86209 | -101.71612 | 40093 ft | 447 kts | 231° |
| 2026-05-04 07:45 | 61.82264 | -101.81810 | 40109 ft | 448 kts | 231° |
| 2026-05-04 07:46 | 61.78307 | -101.91996 | 40113 ft | 447 kts | 231° |
| 2026-05-04 07:46 | 61.74346 | -102.02144 | 40097 ft | 448 kts | 231° |
| 2026-05-04 07:47 | 61.70374 | -102.12277 | 40109 ft | 448 kts | 231° |
| 2026-05-04 07:49 | 61.54475 | -102.52389 | 40126 ft | 447 kts | 231° |
| 2026-05-04 07:49 | 61.50476 | -102.62366 | 40121 ft | 447 kts | 231° |
| 2026-05-04 07:50 | 61.46470 | -102.72317 | 40116 ft | 447 kts | 231° |
| 2026-05-04 07:50 | 61.42458 | -102.82240 | 40105 ft | 446 kts | 231° |
| 2026-05-04 07:51 | 61.38476 | -102.92048 | 40111 ft | 445 kts | 231° |
| 2026-05-04 07:51 | 61.34464 | -103.01885 | 40120 ft | 445 kts | 231° |
| 2026-05-04 07:52 | 61.30445 | -103.11697 | 40122 ft | 446 kts | 231° |
| 2026-05-04 07:52 | 61.26406 | -103.21516 | 40136 ft | 446 kts | 231° |
| 2026-05-04 07:54 | 61.10186 | -103.60522 | 40138 ft | 447 kts | 230° |
| 2026-05-04 07:55 | 61.06107 | -103.70227 | 40143 ft | 447 kts | 230° |
| 2026-05-04 07:55 | 61.02019 | -103.79910 | 40146 ft | 447 kts | 230° |
| 2026-05-04 07:56 | 60.97931 | -103.89554 | 40133 ft | 446 kts | 230° |
| 2026-05-04 07:56 | 60.93839 | -103.99166 | 40130 ft | 445 kts | 230° |
| 2026-05-04 07:57 | 60.89777 | -104.08667 | 40129 ft | 445 kts | 230° |
| 2026-05-04 07:57 | 60.85691 | -104.18185 | 40134 ft | 445 kts | 230° |
| 2026-05-04 07:58 | 60.81588 | -104.27700 | 40136 ft | 445 kts | 230° |
| 2026-05-04 07:58 | 60.77483 | -104.37182 | 40140 ft | 445 kts | 230° |
| 2026-05-04 07:59 | 60.73370 | -104.46643 | 40133 ft | 445 kts | 230° |
| 2026-05-04 07:59 | 60.69247 | -104.56087 | 40137 ft | 446 kts | 230° |
| 2026-05-04 08:00 | 60.65131 | -104.65474 | 40151 ft | 447 kts | 230° |
| 2026-05-04 08:02 | 60.48492 | -105.03033 | 40131 ft | 445 kts | 230° |
| 2026-05-04 08:02 | 60.44346 | -105.12300 | 40145 ft | 448 kts | 230° |
| 2026-05-04 08:03 | 60.40144 | -105.21645 | 40143 ft | 448 kts | 230° |
| 2026-05-04 08:03 | 60.35940 | -105.30962 | 40154 ft | 448 kts | 230° |
| 2026-05-04 08:04 | 60.31730 | -105.40252 | 40149 ft | 448 kts | 230° |
| 2026-05-04 08:04 | 60.27515 | -105.49514 | 40152 ft | 448 kts | 230° |
| 2026-05-04 08:05 | 60.23296 | -105.58747 | 40146 ft | 447 kts | 230° |
| 2026-05-04 08:05 | 60.19100 | -105.67894 | 40146 ft | 448 kts | 230° |
| 2026-05-04 08:06 | 60.14860 | -105.77098 | 40143 ft | 448 kts | 230° |
| 2026-05-04 08:06 | 60.10616 | -105.86273 | 40144 ft | 448 kts | 230° |
| 2026-05-04 08:08 | 59.93619 | -106.22652 | 40151 ft | 449 kts | 230° |
| 2026-05-04 08:11 | 59.74396 | -106.63091 | 40130 ft | 446 kts | 230° |
| 2026-05-04 08:11 | 59.67945 | -106.76505 | 40133 ft | 449 kts | 230° |
| 2026-05-04 08:12 | 59.63610 | -106.85470 | 40133 ft | 450 kts | 230° |
| 2026-05-04 08:12 | 59.59304 | -106.94342 | 40135 ft | 449 kts | 230° |
| 2026-05-04 08:13 | 59.54978 | -107.03221 | 40132 ft | 449 kts | 230° |
| 2026-05-04 08:13 | 59.50642 | -107.12083 | 40102 ft | 448 kts | 230° |
| 2026-05-04 08:14 | 59.46301 | -107.20922 | 40118 ft | 450 kts | 230° |
| 2026-05-04 08:16 | 59.28829 | -107.56147 | 40116 ft | 451 kts | 230° |
| 2026-05-04 08:16 | 59.24438 | -107.64912 | 40118 ft | 450 kts | 230° |
| 2026-05-04 08:17 | 59.20036 | -107.73667 | 40118 ft | 452 kts | 230° |
| 2026-05-04 08:17 | 59.15620 | -107.82413 | 40115 ft | 452 kts | 230° |
| 2026-05-04 08:19 | 58.97997 | -108.16982 | 40108 ft | 450 kts | 230° |
| 2026-05-04 08:20 | 58.94311 | -108.24148 | 40104 ft | 451 kts | 230° |
| 2026-05-04 08:20 | 58.89149 | -108.34140 | 40112 ft | 451 kts | 229° |
| 2026-05-04 08:21 | 58.85448 | -108.41278 | 40106 ft | 452 kts | 229° |
| 2026-05-04 08:21 | 58.80988 | -108.49849 | 40114 ft | 452 kts | 229° |
| 2026-05-04 08:22 | 58.76515 | -108.58412 | 40116 ft | 453 kts | 229° |
| 2026-05-04 08:24 | 58.58648 | -108.92292 | 40103 ft | 451 kts | 229° |
| 2026-05-04 08:24 | 58.54157 | -109.00726 | 40105 ft | 452 kts | 229° |
| 2026-05-04 08:25 | 58.49654 | -109.09152 | 40106 ft | 452 kts | 229° |
| 2026-05-04 08:25 | 58.45144 | -109.17560 | 40104 ft | 453 kts | 229° |
| 2026-05-04 08:27 | 58.27076 | -109.50923 | 40117 ft | 451 kts | 229° |
| 2026-05-04 08:28 | 58.22564 | -109.59176 | 40108 ft | 450 kts | 229° |
| 2026-05-04 08:28 | 58.18068 | -109.67372 | 40110 ft | 451 kts | 229° |
| 2026-05-04 08:29 | 58.13527 | -109.75617 | 40116 ft | 452 kts | 229° |
| 2026-05-04 08:31 | 57.95474 | -110.08467 | 40124 ft | 449 kts | 229° |
| 2026-05-04 08:33 | 57.77675 | -110.41337 | 40134 ft | 449 kts | 229° |
| 2026-05-04 08:35 | 57.59871 | -110.73758 | 40131 ft | 447 kts | 229° |
| 2026-05-04 08:35 | 57.55396 | -110.81835 | 40134 ft | 448 kts | 229° |
| 2026-05-04 08:37 | 57.39728 | -111.09884 | 40138 ft | 447 kts | 229° |
| 2026-05-04 08:38 | 57.35233 | -111.17868 | 40139 ft | 447 kts | 229° |
| 2026-05-04 08:38 | 57.30728 | -111.25840 | 40140 ft | 448 kts | 229° |
| 2026-05-04 08:40 | 57.12686 | -111.57484 | 40146 ft | 447 kts | 229° |
| 2026-05-04 08:41 | 57.08165 | -111.65344 | 40146 ft | 446 kts | 229° |
| 2026-05-04 08:41 | 57.03651 | -111.73163 | 40114 ft | 446 kts | 229° |
| 2026-05-04 08:42 | 56.99114 | -111.80998 | 40140 ft | 449 kts | 229° |
| 2026-05-04 08:42 | 56.94594 | -111.88770 | 40144 ft | 448 kts | 229° |
| 2026-05-04 08:43 | 56.90042 | -111.96575 | 40140 ft | 448 kts | 229° |
| 2026-05-04 08:43 | 56.85489 | -112.04352 | 40139 ft | 447 kts | 229° |
| 2026-05-04 08:44 | 56.80933 | -112.12108 | 40141 ft | 447 kts | 229° |
| 2026-05-04 08:46 | 56.62689 | -112.42897 | 40151 ft | 449 kts | 229° |
| 2026-05-04 08:46 | 56.58099 | -112.50574 | 40151 ft | 448 kts | 229° |
| 2026-05-04 08:47 | 56.53511 | -112.58218 | 40156 ft | 447 kts | 229° |
| 2026-05-04 08:47 | 56.48923 | -112.65852 | 40149 ft | 448 kts | 229° |
| 2026-05-04 08:48 | 56.44350 | -112.73419 | 40154 ft | 449 kts | 229° |
| 2026-05-04 08:48 | 56.39745 | -112.81020 | 40157 ft | 448 kts | 229° |
| 2026-05-04 08:49 | 56.35132 | -112.88605 | 40163 ft | 448 kts | 229° |
| 2026-05-04 08:50 | 56.18996 | -113.14940 | 40166 ft | 448 kts | 229° |
| 2026-05-04 08:51 | 56.14398 | -113.22386 | 40164 ft | 448 kts | 229° |
| 2026-05-04 08:51 | 56.09758 | -113.29876 | 40165 ft | 449 kts | 229° |
| 2026-05-04 08:52 | 56.05113 | -113.37346 | 40177 ft | 448 kts | 229° |
| 2026-05-04 08:52 | 56.00458 | -113.44813 | 40172 ft | 450 kts | 229° |
| 2026-05-04 08:54 | 55.81821 | -113.74440 | 40128 ft | 448 kts | 229° |
| 2026-05-04 08:55 | 55.77149 | -113.81810 | 40176 ft | 450 kts | 229° |
| 2026-05-04 08:55 | 55.72449 | -113.89189 | 40176 ft | 450 kts | 229° |
| 2026-05-04 09:01 | 55.23060 | -114.65332 | 40134 ft | 451 kts | 229° |
| 2026-05-04 09:01 | 55.18307 | -114.72524 | 40138 ft | 451 kts | 229° |
| 2026-05-04 09:02 | 55.13543 | -114.79706 | 40146 ft | 451 kts | 229° |
| 2026-05-04 09:02 | 55.08776 | -114.86870 | 40117 ft | 451 kts | 228° |
| 2026-05-04 09:03 | 55.04038 | -114.93970 | 40162 ft | 453 kts | 229° |
| 2026-05-04 09:03 | 54.99089 | -115.00835 | 40213 ft | 462 kts | 217° |